<?xml version='1.0' encoding='UTF-8'?><gpx version="1.1" creator="JPX - https://github.com/jenetics/jpx" xmlns="http://www.topografix.com/GPX/1/1"><trk><trkseg><trkpt lat="45.77492179392116" lon="8.974834597691286"><ele>405.0</ele><time>2026-04-24T04:43:23.99Z</time></trkpt><trkpt lat="45.77500682075872" lon="8.974842195388373"><ele>405.0</ele><time>2026-04-24T04:43:25.991Z</time></trkpt><trkpt lat="45.77508700664954" lon="8.974863404243832"><ele>405.0</ele><time>2026-04-24T04:43:27.992Z</time></trkpt><trkpt lat="45.77518835989817" lon="8.974851553487557"><ele>405.0</ele><time>2026-04-24T04:43:29.993Z</time></trkpt><trkpt lat="45.77527227257146" lon="8.974861666441763"><ele>405.0</ele><time>2026-04-24T04:43:31.994Z</time></trkpt><trkpt lat="45.77537212886977" lon="8.974870547937691"><ele>404.6</ele><time>2026-04-24T04:43:33.995Z</time></trkpt><trkpt lat="45.775463043113604" lon="8.974879809245218"><ele>404.2</ele><time>2026-04-24T04:43:35.996Z</time></trkpt><trkpt lat="45.77556138821513" lon="8.974891544886255"><ele>403.79999999999995</ele><time>2026-04-24T04:43:37.996Z</time></trkpt><trkpt lat="45.775657944480216" lon="8.97491983614718"><ele>403.4</ele><time>2026-04-24T04:43:39.997Z</time></trkpt><trkpt lat="45.775765138354835" lon="8.974929052102148"><ele>403.0</ele><time>2026-04-24T04:43:41.997Z</time></trkpt><trkpt lat="45.77586193812369" lon="8.974945002754891"><ele>403.0</ele><time>2026-04-24T04:43:43.998Z</time></trkpt><trkpt lat="45.77594991294851" lon="8.974950095607708"><ele>403.0</ele><time>2026-04-24T04:43:45.998Z</time></trkpt><trkpt lat="45.77603082740898" lon="8.974964621782393"><ele>403.0</ele><time>2026-04-24T04:43:47.998Z</time></trkpt><trkpt lat="45.77612615838504" lon="8.974983255593521"><ele>403.0</ele><time>2026-04-24T04:43:49.999Z</time></trkpt><trkpt lat="45.77622339667574" lon="8.974990197551758"><ele>403.0</ele><time>2026-04-24T04:43:51.999Z</time></trkpt><trkpt lat="45.77632410578793" lon="8.974977939389422"><ele>403.0</ele><time>2026-04-24T04:43:53.999Z</time></trkpt><trkpt lat="45.77640958621642" lon="8.975050054532092"><ele>403.0</ele><time>2026-04-24T04:43:55.999Z</time></trkpt><trkpt lat="45.7765140738893" lon="8.975079540988824"><ele>403.0</ele><time>2026-04-24T04:43:57.999Z</time></trkpt><trkpt lat="45.776617307114954" lon="8.975088130216653"><ele>403.0</ele><time>2026-04-24T04:44:00Z</time></trkpt><trkpt lat="45.776712644360565" lon="8.97512007451502"><ele>403.0</ele><time>2026-04-24T04:44:02Z</time></trkpt><trkpt lat="45.77680674617188" lon="8.975142678724845"><ele>403.59999999999997</ele><time>2026-04-24T04:44:04Z</time></trkpt><trkpt lat="45.77689759772621" lon="8.97516921477081"><ele>404.2</ele><time>2026-04-24T04:44:06Z</time></trkpt><trkpt lat="45.77698670706803" lon="8.975202099889863"><ele>404.8</ele><time>2026-04-24T04:44:08Z</time></trkpt><trkpt lat="45.777080624698854" lon="8.975218652738352"><ele>405.4</ele><time>2026-04-24T04:44:10Z</time></trkpt><trkpt lat="45.77716782607198" lon="8.975244123548798"><ele>406.0</ele><time>2026-04-24T04:44:12Z</time></trkpt><trkpt lat="45.77725659639849" lon="8.975266269126864"><ele>406.00000000000006</ele><time>2026-04-24T04:44:14Z</time></trkpt><trkpt lat="45.77733552525342" lon="8.975282872362117"><ele>406.0</ele><time>2026-04-24T04:44:16Z</time></trkpt><trkpt lat="45.777417428796525" lon="8.975299763207188"><ele>406.0</ele><time>2026-04-24T04:44:18Z</time></trkpt><trkpt lat="45.77750138998736" lon="8.975315933602687"><ele>406.0</ele><time>2026-04-24T04:44:20Z</time></trkpt><trkpt lat="45.77758091272718" lon="8.975345983097418"><ele>406.00000000000006</ele><time>2026-04-24T04:44:22Z</time></trkpt><trkpt lat="45.77766285260248" lon="8.975358334510487"><ele>406.0</ele><time>2026-04-24T04:44:24Z</time></trkpt><trkpt lat="45.77773967225933" lon="8.975382192642973"><ele>406.33333333333337</ele><time>2026-04-24T04:44:26Z</time></trkpt><trkpt lat="45.777808812439" lon="8.975401978237405"><ele>406.6666666666667</ele><time>2026-04-24T04:44:28Z</time></trkpt><trkpt lat="45.777874393458305" lon="8.975418810800972"><ele>407.0</ele><time>2026-04-24T04:44:30.001Z</time></trkpt><trkpt lat="45.777957231399746" lon="8.975453085810852"><ele>407.33333333333337</ele><time>2026-04-24T04:44:33.001Z</time></trkpt><trkpt lat="45.77802778955335" lon="8.97547069598483"><ele>407.6666666666667</ele><time>2026-04-24T04:44:42.001Z</time></trkpt><trkpt lat="45.77811783883142" lon="8.97549396066963"><ele>408.0</ele><time>2026-04-24T04:44:45.001Z</time></trkpt><trkpt lat="45.77826981850764" lon="8.975427015622527"><ele>408.0</ele><time>2026-04-24T04:44:48.001Z</time></trkpt><trkpt lat="45.77832705854744" lon="8.975350893428148"><ele>408.0</ele><time>2026-04-24T04:44:50.001Z</time></trkpt><trkpt lat="45.77838036440556" lon="8.975280656063145"><ele>408.0</ele><time>2026-04-24T04:44:52.001Z</time></trkpt><trkpt lat="45.77842821327069" lon="8.975197940984007"><ele>408.0</ele><time>2026-04-24T04:44:54.001Z</time></trkpt><trkpt lat="45.778503722930886" lon="8.97514203815495"><ele>408.0</ele><time>2026-04-24T04:44:56.001Z</time></trkpt><trkpt lat="45.77857342385438" lon="8.975073778801201"><ele>408.0</ele><time>2026-04-24T04:44:58.001Z</time></trkpt><trkpt lat="45.778648258203134" lon="8.975002111380277"><ele>408.3333333333333</ele><time>2026-04-24T04:45:00.001Z</time></trkpt><trkpt lat="45.77872503405571" lon="8.974934365293901"><ele>408.66666666666663</ele><time>2026-04-24T04:45:02.001Z</time></trkpt><trkpt lat="45.77880319603125" lon="8.974886441674876"><ele>409.0</ele><time>2026-04-24T04:45:04.001Z</time></trkpt><trkpt lat="45.77888364005693" lon="8.974843530864831"><ele>409.3333333333333</ele><time>2026-04-24T04:45:06.001Z</time></trkpt><trkpt lat="45.77896048641913" lon="8.974798325061409"><ele>409.66666666666663</ele><time>2026-04-24T04:45:08.001Z</time></trkpt><trkpt lat="45.779039805842665" lon="8.974760389507498"><ele>410.0</ele><time>2026-04-24T04:45:10.001Z</time></trkpt><trkpt lat="45.77912234856832" lon="8.974752154510956"><ele>409.99999999999994</ele><time>2026-04-24T04:45:12.001Z</time></trkpt><trkpt lat="45.77920523701973" lon="8.974718711887517"><ele>410.0</ele><time>2026-04-24T04:45:14.001Z</time></trkpt><trkpt lat="45.77928138783085" lon="8.974683222067538"><ele>410.0</ele><time>2026-04-24T04:45:16.001Z</time></trkpt><trkpt lat="45.779355085591966" lon="8.974650705012643"><ele>410.0</ele><time>2026-04-24T04:45:18.001Z</time></trkpt><trkpt lat="45.77943054742505" lon="8.974621442795291"><ele>409.99999999999994</ele><time>2026-04-24T04:45:20.001Z</time></trkpt><trkpt lat="45.77950264407341" lon="8.974594252696757"><ele>410.0</ele><time>2026-04-24T04:45:22.001Z</time></trkpt><trkpt lat="45.779575651437845" lon="8.974561351680576"><ele>409.8333333333333</ele><time>2026-04-24T04:45:24.001Z</time></trkpt><trkpt lat="45.77964618507879" lon="8.974523711424673"><ele>409.66666666666663</ele><time>2026-04-24T04:45:26.001Z</time></trkpt><trkpt lat="45.77971395276467" lon="8.974468044977199"><ele>409.5</ele><time>2026-04-24T04:45:28Z</time></trkpt><trkpt lat="45.7797907698961" lon="8.974444517476133"><ele>409.33333333333337</ele><time>2026-04-24T04:45:30Z</time></trkpt><trkpt lat="45.7798708515454" lon="8.974409619221605"><ele>409.1666666666667</ele><time>2026-04-24T04:45:32Z</time></trkpt><trkpt lat="45.77996208446493" lon="8.974366055830716"><ele>409.0</ele><time>2026-04-24T04:45:34Z</time></trkpt><trkpt lat="45.78006001939574" lon="8.974307015206113"><ele>409.00000000000006</ele><time>2026-04-24T04:45:36Z</time></trkpt><trkpt lat="45.78015835999884" lon="8.97425685742342"><ele>409.0</ele><time>2026-04-24T04:45:38Z</time></trkpt><trkpt lat="45.780236064740535" lon="8.97421534302721"><ele>409.0</ele><time>2026-04-24T04:45:40Z</time></trkpt><trkpt lat="45.780312670213604" lon="8.974247454835485"><ele>409.0</ele><time>2026-04-24T04:45:43Z</time></trkpt><trkpt lat="45.780342611278414" lon="8.974150384472292"><ele>409.00000000000006</ele><time>2026-04-24T04:45:45Z</time></trkpt><trkpt lat="45.78040551075975" lon="8.974063942857045"><ele>409.0</ele><time>2026-04-24T04:45:48Z</time></trkpt><trkpt lat="45.78045813201243" lon="8.973991723662305"><ele>408.79999999999995</ele><time>2026-04-24T04:45:50Z</time></trkpt><trkpt lat="45.78054874689367" lon="8.97395202527255"><ele>408.59999999999997</ele><time>2026-04-24T04:45:52Z</time></trkpt><trkpt lat="45.78064043133658" lon="8.973892262546387"><ele>408.4</ele><time>2026-04-24T04:45:54Z</time></trkpt><trkpt lat="45.78073847850721" lon="8.97384035753324"><ele>408.2</ele><time>2026-04-24T04:45:56Z</time></trkpt><trkpt lat="45.7808369780531" lon="8.973791568224255"><ele>408.0</ele><time>2026-04-24T04:45:58Z</time></trkpt><trkpt lat="45.7809394737527" lon="8.973727507684242"><ele>408.75</ele><time>2026-04-24T04:46:00Z</time></trkpt><trkpt lat="45.78104802727793" lon="8.973670487971683"><ele>409.5</ele><time>2026-04-24T04:46:02Z</time></trkpt><trkpt lat="45.78115262423392" lon="8.973597641815406"><ele>410.25</ele><time>2026-04-24T04:46:04Z</time></trkpt><trkpt lat="45.78126546960334" lon="8.973544317385768"><ele>411.0</ele><time>2026-04-24T04:46:06Z</time></trkpt><trkpt lat="45.78136959244611" lon="8.973478778941274"><ele>411.0</ele><time>2026-04-24T04:46:08Z</time></trkpt><trkpt lat="45.78147743568345" lon="8.973414384380952"><ele>411.0</ele><time>2026-04-24T04:46:10Z</time></trkpt><trkpt lat="45.78159120681421" lon="8.973350773224636"><ele>411.0</ele><time>2026-04-24T04:46:12Z</time></trkpt><trkpt lat="45.78170425095346" lon="8.973286965790894"><ele>411.0</ele><time>2026-04-24T04:46:14Z</time></trkpt><trkpt lat="45.78181585615104" lon="8.97322840170291"><ele>410.0</ele><time>2026-04-24T04:46:16Z</time></trkpt><trkpt lat="45.78187401335765" lon="8.973189680307186"><ele>409.0</ele><time>2026-04-24T04:46:17Z</time></trkpt><trkpt lat="45.78198498674731" lon="8.973122862492852"><ele>408.0</ele><time>2026-04-24T04:46:19Z</time></trkpt><trkpt lat="45.7820991831613" lon="8.973061323265318"><ele>407.0</ele><time>2026-04-24T04:46:21Z</time></trkpt><trkpt lat="45.78221100657895" lon="8.973001636312032"><ele>406.0</ele><time>2026-04-24T04:46:23Z</time></trkpt><trkpt lat="45.782320334804275" lon="8.972938066420278"><ele>406.0</ele><time>2026-04-24T04:46:25Z</time></trkpt><trkpt lat="45.782432564996924" lon="8.97287294997896"><ele>406.0</ele><time>2026-04-24T04:46:27Z</time></trkpt><trkpt lat="45.782546113702836" lon="8.972805882258989"><ele>406.0</ele><time>2026-04-24T04:46:29Z</time></trkpt><trkpt lat="45.782660897264016" lon="8.972744691819862"><ele>406.0</ele><time>2026-04-24T04:46:31Z</time></trkpt><trkpt lat="45.78276748341532" lon="8.972682559036693"><ele>406.4</ele><time>2026-04-24T04:46:33Z</time></trkpt><trkpt lat="45.78285186472619" lon="8.972599075148983"><ele>406.8</ele><time>2026-04-24T04:46:35Z</time></trkpt><trkpt lat="45.78292942005545" lon="8.972489967654539"><ele>407.2</ele><time>2026-04-24T04:46:37Z</time></trkpt><trkpt lat="45.78297071893983" lon="8.97234444380824"><ele>407.59999999999997</ele><time>2026-04-24T04:46:39Z</time></trkpt><trkpt lat="45.78302089240225" lon="8.972194960477704"><ele>408.0</ele><time>2026-04-24T04:46:41Z</time></trkpt><trkpt lat="45.783051668885875" lon="8.97203495166131"><ele>407.0</ele><time>2026-04-24T04:46:43Z</time></trkpt><trkpt lat="45.78309291371952" lon="8.971896441076696"><ele>406.0</ele><time>2026-04-24T04:46:45Z</time></trkpt><trkpt lat="45.78312806245407" lon="8.971761075184414"><ele>405.0</ele><time>2026-04-24T04:46:47Z</time></trkpt><trkpt lat="45.783158013436996" lon="8.971634443214308"><ele>404.0</ele><time>2026-04-24T04:46:49Z</time></trkpt><trkpt lat="45.783192092189765" lon="8.97153243176012"><ele>403.0</ele><time>2026-04-24T04:46:51Z</time></trkpt><trkpt lat="45.78322218875137" lon="8.97143168763271"><ele>403.00000000000006</ele><time>2026-04-24T04:46:54Z</time></trkpt><trkpt lat="45.783235598506224" lon="8.971322122786205"><ele>403.0</ele><time>2026-04-24T04:47:10Z</time></trkpt><trkpt lat="45.783251975863095" lon="8.97119038900599"><ele>403.0</ele><time>2026-04-24T04:47:13Z</time></trkpt><trkpt lat="45.7832447649905" lon="8.971075229062073"><ele>403.0</ele><time>2026-04-24T04:47:15Z</time></trkpt><trkpt lat="45.78323076089857" lon="8.970946997313458"><ele>403.00000000000006</ele><time>2026-04-24T04:47:17Z</time></trkpt><trkpt lat="45.78323452202631" lon="8.970800741397069"><ele>403.0</ele><time>2026-04-24T04:47:19Z</time></trkpt><trkpt lat="45.783241566806005" lon="8.970664308851376"><ele>403.2</ele><time>2026-04-24T04:47:21Z</time></trkpt><trkpt lat="45.7832588312444" lon="8.97053444282889"><ele>403.4</ele><time>2026-04-24T04:47:23Z</time></trkpt><trkpt lat="45.78329347766244" lon="8.970396387202818"><ele>403.59999999999997</ele><time>2026-04-24T04:47:25.001Z</time></trkpt><trkpt lat="45.78332277160641" lon="8.970249056449237"><ele>403.79999999999995</ele><time>2026-04-24T04:47:27.001Z</time></trkpt><trkpt lat="45.783331751330124" lon="8.970120018434852"><ele>404.0</ele><time>2026-04-24T04:47:29.001Z</time></trkpt><trkpt lat="45.78333666009977" lon="8.969998526456294"><ele>404.79999999999995</ele><time>2026-04-24T04:47:31.001Z</time></trkpt><trkpt lat="45.78334031840089" lon="8.96989689611149"><ele>405.59999999999997</ele><time>2026-04-24T04:47:32.001Z</time></trkpt><trkpt lat="45.783344309782535" lon="8.969757676777752"><ele>406.4</ele><time>2026-04-24T04:47:34Z</time></trkpt><trkpt lat="45.783347529313026" lon="8.969615312786331"><ele>407.2</ele><time>2026-04-24T04:47:36Z</time></trkpt><trkpt lat="45.78334946112019" lon="8.969474635906868"><ele>408.0</ele><time>2026-04-24T04:47:38Z</time></trkpt><trkpt lat="45.78335213336669" lon="8.969332653100354"><ele>408.4</ele><time>2026-04-24T04:47:40Z</time></trkpt><trkpt lat="45.78335574586422" lon="8.969187897759987"><ele>408.79999999999995</ele><time>2026-04-24T04:47:42Z</time></trkpt><trkpt lat="45.783371128226996" lon="8.969026393156954"><ele>409.2</ele><time>2026-04-24T04:47:44Z</time></trkpt><trkpt lat="45.78339704495367" lon="8.968854566050375"><ele>409.6</ele><time>2026-04-24T04:47:46Z</time></trkpt><trkpt lat="45.78338814032966" lon="8.968763641578198"><ele>410.0</ele><time>2026-04-24T04:47:47Z</time></trkpt><trkpt lat="45.78341982196669" lon="8.968681711722603"><ele>410.0</ele><time>2026-04-24T04:47:48Z</time></trkpt><trkpt lat="45.78344458536669" lon="8.968584514507466"><ele>410.0</ele><time>2026-04-24T04:47:49Z</time></trkpt><trkpt lat="45.78345825225805" lon="8.968492534254374"><ele>410.0</ele><time>2026-04-24T04:47:50Z</time></trkpt><trkpt lat="45.78348107866117" lon="8.96840178240648"><ele>410.0</ele><time>2026-04-24T04:47:51Z</time></trkpt><trkpt lat="45.78349855821697" lon="8.968310393226663"><ele>410.0</ele><time>2026-04-24T04:47:52Z</time></trkpt><trkpt lat="45.78351335510852" lon="8.968222350367078"><ele>410.0</ele><time>2026-04-24T04:47:53Z</time></trkpt><trkpt lat="45.783531156718915" lon="8.96813060168524"><ele>410.0</ele><time>2026-04-24T04:47:54Z</time></trkpt><trkpt lat="45.78354860799546" lon="8.968039452446273"><ele>409.7142857142857</ele><time>2026-04-24T04:47:55Z</time></trkpt><trkpt lat="45.78356720493489" lon="8.967945395533187"><ele>409.4285714285714</ele><time>2026-04-24T04:47:56Z</time></trkpt><trkpt lat="45.78357746354496" lon="8.967851260252761"><ele>409.1428571428571</ele><time>2026-04-24T04:47:57Z</time></trkpt><trkpt lat="45.78359784663239" lon="8.967765679943641"><ele>408.8571428571429</ele><time>2026-04-24T04:47:58Z</time></trkpt><trkpt lat="45.7836124962663" lon="8.967677141078367"><ele>408.57142857142856</ele><time>2026-04-24T04:47:59Z</time></trkpt><trkpt lat="45.7836414191858" lon="8.967509197618265"><ele>408.2857142857143</ele><time>2026-04-24T04:48:01Z</time></trkpt><trkpt lat="45.78367129708625" lon="8.967424159848559"><ele>408.0</ele><time>2026-04-24T04:48:02Z</time></trkpt><trkpt lat="45.78369877500758" lon="8.967245460050394"><ele>407.6666666666667</ele><time>2026-04-24T04:48:04Z</time></trkpt><trkpt lat="45.783718376464115" lon="8.967153533821199"><ele>407.33333333333337</ele><time>2026-04-24T04:48:05Z</time></trkpt><trkpt lat="45.783745749835674" lon="8.966989878933957"><ele>407.0</ele><time>2026-04-24T04:48:07Z</time></trkpt><trkpt lat="45.78375416270544" lon="8.966900264441714"><ele>406.6666666666667</ele><time>2026-04-24T04:48:08Z</time></trkpt><trkpt lat="45.783778836442046" lon="8.966728070137028"><ele>406.33333333333337</ele><time>2026-04-24T04:48:10Z</time></trkpt><trkpt lat="45.78380027276958" lon="8.966638390456609"><ele>406.0</ele><time>2026-04-24T04:48:11Z</time></trkpt><trkpt lat="45.7838155070722" lon="8.966472532262244"><ele>406.0</ele><time>2026-04-24T04:48:13Z</time></trkpt><trkpt lat="45.78384746168736" lon="8.966390550424155"><ele>406.0</ele><time>2026-04-24T04:48:14Z</time></trkpt><trkpt lat="45.78386922529728" lon="8.966225231122914"><ele>406.0</ele><time>2026-04-24T04:48:16Z</time></trkpt><trkpt lat="45.78389845643982" lon="8.966066884847471"><ele>406.0</ele><time>2026-04-24T04:48:18Z</time></trkpt><trkpt lat="45.783934219471895" lon="8.96590745363818"><ele>406.0</ele><time>2026-04-24T04:48:20Z</time></trkpt><trkpt lat="45.783969163382665" lon="8.965746411184425"><ele>406.0</ele><time>2026-04-24T04:48:22Z</time></trkpt><trkpt lat="45.783995182899254" lon="8.96558554339277"><ele>406.0</ele><time>2026-04-24T04:48:24Z</time></trkpt><trkpt lat="45.78403284325261" lon="8.965433927905547"><ele>406.0</ele><time>2026-04-24T04:48:26Z</time></trkpt><trkpt lat="45.78406114418159" lon="8.965283035239683"><ele>406.0</ele><time>2026-04-24T04:48:28Z</time></trkpt><trkpt lat="45.78409466954622" lon="8.965133370175218"><ele>406.0</ele><time>2026-04-24T04:48:30Z</time></trkpt><trkpt lat="45.784122707464896" lon="8.96498435404067"><ele>406.0</ele><time>2026-04-24T04:48:32Z</time></trkpt><trkpt lat="45.78415006919878" lon="8.964835180464885"><ele>406.0</ele><time>2026-04-24T04:48:34Z</time></trkpt><trkpt lat="45.7841757913045" lon="8.964679739336926"><ele>406.0</ele><time>2026-04-24T04:48:36Z</time></trkpt><trkpt lat="45.784206694254685" lon="8.964529143920416"><ele>406.0</ele><time>2026-04-24T04:48:38Z</time></trkpt><trkpt lat="45.78422504315128" lon="8.964374888594914"><ele>406.0</ele><time>2026-04-24T04:48:40Z</time></trkpt><trkpt lat="45.78425104946693" lon="8.964223269872095"><ele>405.6</ele><time>2026-04-24T04:48:42Z</time></trkpt><trkpt lat="45.78427391269529" lon="8.964073942416297"><ele>405.20000000000005</ele><time>2026-04-24T04:48:44Z</time></trkpt><trkpt lat="45.78430434723236" lon="8.96393197633248"><ele>404.79999999999995</ele><time>2026-04-24T04:48:46Z</time></trkpt><trkpt lat="45.78433536651137" lon="8.963788496490356"><ele>404.4</ele><time>2026-04-24T04:48:48Z</time></trkpt><trkpt lat="45.78436651504653" lon="8.963646751876528"><ele>404.0</ele><time>2026-04-24T04:48:50Z</time></trkpt><trkpt lat="45.78439674805729" lon="8.9635066358202"><ele>404.0</ele><time>2026-04-24T04:48:52Z</time></trkpt><trkpt lat="45.78442713935184" lon="8.963368268699679"><ele>404.0</ele><time>2026-04-24T04:48:54Z</time></trkpt><trkpt lat="45.784456764517564" lon="8.963235101959748"><ele>404.0</ele><time>2026-04-24T04:48:56Z</time></trkpt><trkpt lat="45.784499432455625" lon="8.96310668207335"><ele>404.0</ele><time>2026-04-24T04:48:58Z</time></trkpt><trkpt lat="45.78453733813407" lon="8.962981994923021"><ele>404.0</ele><time>2026-04-24T04:49:00Z</time></trkpt><trkpt lat="45.78454629601921" lon="8.962834959387324"><ele>404.0</ele><time>2026-04-24T04:49:02Z</time></trkpt><trkpt lat="45.784593752773496" lon="8.96269244692075"><ele>404.0</ele><time>2026-04-24T04:49:04Z</time></trkpt><trkpt lat="45.7846360764825" lon="8.962546494276998"><ele>404.0</ele><time>2026-04-24T04:49:06Z</time></trkpt><trkpt lat="45.784684993470755" lon="8.962402366538276"><ele>404.0</ele><time>2026-04-24T04:49:08Z</time></trkpt><trkpt lat="45.784735655817904" lon="8.962261142490132"><ele>404.0</ele><time>2026-04-24T04:49:10Z</time></trkpt><trkpt lat="45.78478533605079" lon="8.962119854597882"><ele>404.0</ele><time>2026-04-24T04:49:12Z</time></trkpt><trkpt lat="45.78483548746363" lon="8.961987762250354"><ele>404.0</ele><time>2026-04-24T04:49:14Z</time></trkpt><trkpt lat="45.784882883521384" lon="8.96184930268637"><ele>404.0</ele><time>2026-04-24T04:49:16Z</time></trkpt><trkpt lat="45.78492871078781" lon="8.961704555407682"><ele>404.0</ele><time>2026-04-24T04:49:18.001Z</time></trkpt><trkpt lat="45.784965348131315" lon="8.961550674588526"><ele>404.0</ele><time>2026-04-24T04:49:20.001Z</time></trkpt><trkpt lat="45.785007665418355" lon="8.961411516035529"><ele>404.0</ele><time>2026-04-24T04:49:22.001Z</time></trkpt><trkpt lat="45.78505495129166" lon="8.961275272619982"><ele>404.0</ele><time>2026-04-24T04:49:24.001Z</time></trkpt><trkpt lat="45.78510696433285" lon="8.961138631943108"><ele>404.0</ele><time>2026-04-24T04:49:26.001Z</time></trkpt><trkpt lat="45.785157414168495" lon="8.961006212541848"><ele>404.0</ele><time>2026-04-24T04:49:28.001Z</time></trkpt><trkpt lat="45.78520630557232" lon="8.960868321524899"><ele>404.0</ele><time>2026-04-24T04:49:30.001Z</time></trkpt><trkpt lat="45.78525860944208" lon="8.960733880652057"><ele>404.0</ele><time>2026-04-24T04:49:32.001Z</time></trkpt><trkpt lat="45.785306899075465" lon="8.960598137601787"><ele>404.0</ele><time>2026-04-24T04:49:34.001Z</time></trkpt><trkpt lat="45.785357787768895" lon="8.960464513464382"><ele>404.0</ele><time>2026-04-24T04:49:36.001Z</time></trkpt><trkpt lat="45.785409006336636" lon="8.960330256887854"><ele>404.0</ele><time>2026-04-24T04:49:38.001Z</time></trkpt><trkpt lat="45.785461687052894" lon="8.960195327227318"><ele>404.0</ele><time>2026-04-24T04:49:40Z</time></trkpt><trkpt lat="45.78551152854298" lon="8.960053190481682"><ele>403.6</ele><time>2026-04-24T04:49:42Z</time></trkpt><trkpt lat="45.78555926047005" lon="8.959912120545559"><ele>403.2</ele><time>2026-04-24T04:49:44Z</time></trkpt><trkpt lat="45.785610180104534" lon="8.959773126815545"><ele>402.8</ele><time>2026-04-24T04:49:46Z</time></trkpt><trkpt lat="45.78565889278669" lon="8.959628398966158"><ele>402.40000000000003</ele><time>2026-04-24T04:49:48Z</time></trkpt><trkpt lat="45.78571431754869" lon="8.959489449685186"><ele>402.0</ele><time>2026-04-24T04:49:50Z</time></trkpt><trkpt lat="45.785768601188835" lon="8.959340896586465"><ele>402.0</ele><time>2026-04-24T04:49:52Z</time></trkpt><trkpt lat="45.78582199380898" lon="8.959202291088687"><ele>402.0</ele><time>2026-04-24T04:49:54Z</time></trkpt><trkpt lat="45.78587284186157" lon="8.959051402093554"><ele>402.0</ele><time>2026-04-24T04:49:56Z</time></trkpt><trkpt lat="45.78592134764602" lon="8.958910337255078"><ele>402.0</ele><time>2026-04-24T04:49:58Z</time></trkpt><trkpt lat="45.785969145464705" lon="8.958765555898864"><ele>402.0</ele><time>2026-04-24T04:50:00Z</time></trkpt><trkpt lat="45.786016716670474" lon="8.958622087660949"><ele>402.20000000000005</ele><time>2026-04-24T04:50:02Z</time></trkpt><trkpt lat="45.78605798091589" lon="8.958466804393957"><ele>402.4</ele><time>2026-04-24T04:50:04Z</time></trkpt><trkpt lat="45.78611019262461" lon="8.958327195252641"><ele>402.6</ele><time>2026-04-24T04:50:06Z</time></trkpt><trkpt lat="45.78615629981163" lon="8.958182567986167"><ele>402.79999999999995</ele><time>2026-04-24T04:50:08Z</time></trkpt><trkpt lat="45.78620089939163" lon="8.958041221805628"><ele>403.0</ele><time>2026-04-24T04:50:10Z</time></trkpt><trkpt lat="45.786255978650075" lon="8.957907399377632"><ele>403.0</ele><time>2026-04-24T04:50:12Z</time></trkpt><trkpt lat="45.78630815699335" lon="8.957774622040297"><ele>403.0</ele><time>2026-04-24T04:50:14Z</time></trkpt><trkpt lat="45.786358196461585" lon="8.95764937664474"><ele>403.0</ele><time>2026-04-24T04:50:16Z</time></trkpt><trkpt lat="45.78640497487489" lon="8.957531880179628"><ele>403.0</ele><time>2026-04-24T04:50:18Z</time></trkpt><trkpt lat="45.78645417557206" lon="8.957417616245799"><ele>403.0</ele><time>2026-04-24T04:50:20Z</time></trkpt><trkpt lat="45.78652251329177" lon="8.95733875792737"><ele>402.8571428571429</ele><time>2026-04-24T04:50:22Z</time></trkpt><trkpt lat="45.78658822785071" lon="8.957267337700399"><ele>402.71428571428567</ele><time>2026-04-24T04:50:24Z</time></trkpt><trkpt lat="45.7866519201302" lon="8.957220820916174"><ele>402.57142857142856</ele><time>2026-04-24T04:50:26Z</time></trkpt><trkpt lat="45.78671426577492" lon="8.957176474196709"><ele>402.42857142857144</ele><time>2026-04-24T04:50:28Z</time></trkpt><trkpt lat="45.78679279369242" lon="8.957188732315"><ele>402.28571428571433</ele><time>2026-04-24T04:50:30Z</time></trkpt><trkpt lat="45.786846443893694" lon="8.957138517099848"><ele>402.1428571428571</ele><time>2026-04-24T04:50:32Z</time></trkpt><trkpt lat="45.786912863821115" lon="8.957127184781223"><ele>402.0</ele><time>2026-04-24T04:50:34Z</time></trkpt><trkpt lat="45.78695210246898" lon="8.957210029199466"><ele>402.3333333333333</ele><time>2026-04-24T04:50:35Z</time></trkpt><trkpt lat="45.787039317386" lon="8.957230268265551"><ele>402.66666666666663</ele><time>2026-04-24T04:50:38Z</time></trkpt><trkpt lat="45.78709448520344" lon="8.9571621852714"><ele>403.0</ele><time>2026-04-24T04:50:44Z</time></trkpt><trkpt lat="45.78718675715691" lon="8.957166312187592"><ele>403.3333333333333</ele><time>2026-04-24T04:50:48Z</time></trkpt><trkpt lat="45.78726830953289" lon="8.957153485561307"><ele>403.66666666666663</ele><time>2026-04-24T04:50:51Z</time></trkpt><trkpt lat="45.787304745248385" lon="8.957072433463688"><ele>404.0</ele><time>2026-04-24T04:50:56Z</time></trkpt><trkpt lat="45.787282831373176" lon="8.95675020685838"><ele>404.0</ele><time>2026-04-24T04:50:57Z</time></trkpt><trkpt lat="45.78726387354023" lon="8.956630520474341"><ele>404.0</ele><time>2026-04-24T04:51:00Z</time></trkpt><trkpt lat="45.78731617406796" lon="8.956571091301027"><ele>404.0</ele><time>2026-04-24T04:51:03Z</time></trkpt><trkpt lat="45.78738085933931" lon="8.956592088971863"><ele>404.0</ele><time>2026-04-24T04:51:06Z</time></trkpt><trkpt lat="45.787454207647315" lon="8.956618368925016"><ele>404.0</ele><time>2026-04-24T04:51:10Z</time></trkpt><trkpt lat="45.78749936021841" lon="8.956538285279647"><ele>404.0</ele><time>2026-04-24T04:51:14Z</time></trkpt><trkpt lat="45.78750946845555" lon="8.956438083935224"><ele>404.0</ele><time>2026-04-24T04:51:17Z</time></trkpt><trkpt lat="45.7875246803669" lon="8.956346536399883"><ele>404.0</ele><time>2026-04-24T04:51:20.001Z</time></trkpt><trkpt lat="45.787538502801155" lon="8.956254793752265"><ele>404.0</ele><time>2026-04-24T04:51:23.001Z</time></trkpt><trkpt lat="45.78755137363449" lon="8.95616497177756"><ele>404.0</ele><time>2026-04-24T04:51:26.001Z</time></trkpt><trkpt lat="45.787592533924034" lon="8.956076131139993"><ele>404.0</ele><time>2026-04-24T04:51:30.001Z</time></trkpt><trkpt lat="45.787654754840446" lon="8.956102455193454"><ele>404.0</ele><time>2026-04-24T04:51:33.001Z</time></trkpt><trkpt lat="45.787719229732936" lon="8.956140016266506"><ele>404.0</ele><time>2026-04-24T04:51:36.001Z</time></trkpt><trkpt lat="45.78779147613735" lon="8.956176475019312"><ele>404.0</ele><time>2026-04-24T04:51:40.001Z</time></trkpt><trkpt lat="45.78785360055466" lon="8.956155562717534"><ele>404.66666666666663</ele><time>2026-04-24T04:51:43.001Z</time></trkpt><trkpt lat="45.787903176398444" lon="8.956059632612973"><ele>405.3333333333333</ele><time>2026-04-24T04:51:46Z</time></trkpt><trkpt lat="45.787926691050835" lon="8.955967363584378"><ele>406.0</ele><time>2026-04-24T04:51:49Z</time></trkpt><trkpt lat="45.78799376658478" lon="8.955915340217969"><ele>406.66666666666663</ele><time>2026-04-24T04:51:53Z</time></trkpt><trkpt lat="45.78805154358811" lon="8.95598716498135"><ele>407.3333333333333</ele><time>2026-04-24T04:51:56Z</time></trkpt><trkpt lat="45.788128487929264" lon="8.956029068178584"><ele>408.0</ele><time>2026-04-24T04:52:00Z</time></trkpt><trkpt lat="45.78820169344237" lon="8.956078434956481"><ele>408.0</ele><time>2026-04-24T04:52:04Z</time></trkpt><trkpt lat="45.78826305721798" lon="8.956116081472196"><ele>408.0</ele><time>2026-04-24T04:52:07Z</time></trkpt><trkpt lat="45.78833707100418" lon="8.956162330154084"><ele>408.0</ele><time>2026-04-24T04:52:11Z</time></trkpt><trkpt lat="45.78840021038122" lon="8.956207129761697"><ele>408.0</ele><time>2026-04-24T04:52:14Z</time></trkpt><trkpt lat="45.78846376135927" lon="8.956244854026233"><ele>408.0</ele><time>2026-04-24T04:52:17Z</time></trkpt><trkpt lat="45.788531987553085" lon="8.956244058094786"><ele>408.0</ele><time>2026-04-24T04:52:20Z</time></trkpt><trkpt lat="45.788565960841616" lon="8.956154555961206"><ele>408.0</ele><time>2026-04-24T04:52:23Z</time></trkpt><trkpt lat="45.78858278838909" lon="8.95604758317947"><ele>408.3333333333333</ele><time>2026-04-24T04:52:26Z</time></trkpt><trkpt lat="45.78860083627873" lon="8.955924470107645"><ele>408.66666666666663</ele><time>2026-04-24T04:52:29Z</time></trkpt><trkpt lat="45.78862020499583" lon="8.955800374083433"><ele>409.0</ele><time>2026-04-24T04:52:32Z</time></trkpt><trkpt lat="45.78865017529193" lon="8.95568360763542"><ele>409.3333333333333</ele><time>2026-04-24T04:52:35Z</time></trkpt><trkpt lat="45.78868714464113" lon="8.955563127608457"><ele>409.66666666666663</ele><time>2026-04-24T04:52:38Z</time></trkpt><trkpt lat="45.788721394617724" lon="8.95544250152798"><ele>410.0</ele><time>2026-04-24T04:52:41Z</time></trkpt><trkpt lat="45.78876825065238" lon="8.955337074604952"><ele>410.14285714285717</ele><time>2026-04-24T04:52:44Z</time></trkpt><trkpt lat="45.78883462029539" lon="8.955372998770969"><ele>410.2857142857143</ele><time>2026-04-24T04:52:46Z</time></trkpt><trkpt lat="45.78888053235313" lon="8.955444029187133"><ele>410.42857142857144</ele><time>2026-04-24T04:53:37Z</time></trkpt><trkpt lat="45.78897542941736" lon="8.955475044413928"><ele>410.57142857142856</ele><time>2026-04-24T04:53:40.001Z</time></trkpt><trkpt lat="45.789047622195454" lon="8.955485765120034"><ele>410.71428571428567</ele><time>2026-04-24T04:53:42.001Z</time></trkpt><trkpt lat="45.78911818782085" lon="8.955516235607385"><ele>410.85714285714283</ele><time>2026-04-24T04:53:44.001Z</time></trkpt><trkpt lat="45.78917912007124" lon="8.955550366101662"><ele>411.0</ele><time>2026-04-24T04:53:46.001Z</time></trkpt><trkpt lat="45.789245292669555" lon="8.955579689213259"><ele>411.0</ele><time>2026-04-24T04:53:48.001Z</time></trkpt><trkpt lat="45.78931336930049" lon="8.95557879343664"><ele>411.0</ele><time>2026-04-24T04:53:50.001Z</time></trkpt><trkpt lat="45.78938482210918" lon="8.955547642436535"><ele>411.0</ele><time>2026-04-24T04:53:52Z</time></trkpt><trkpt lat="45.789468427492615" lon="8.955524837587902"><ele>411.0</ele><time>2026-04-24T04:53:54Z</time></trkpt><trkpt lat="45.78954054679249" lon="8.955486914352681"><ele>411.0</ele><time>2026-04-24T04:53:56Z</time></trkpt><trkpt lat="45.789597783646265" lon="8.955441916420487"><ele>411.0</ele><time>2026-04-24T04:53:58Z</time></trkpt><trkpt lat="45.78968451937176" lon="8.95536179411577"><ele>410.6666666666667</ele><time>2026-04-24T04:54:01Z</time></trkpt><trkpt lat="45.7897367212672" lon="8.955292711729184"><ele>410.33333333333337</ele><time>2026-04-24T04:54:03Z</time></trkpt><trkpt lat="45.78978889755192" lon="8.955208327106538"><ele>410.0</ele><time>2026-04-24T04:54:05Z</time></trkpt><trkpt lat="45.78985333507669" lon="8.95512838991069"><ele>409.6666666666667</ele><time>2026-04-24T04:54:07Z</time></trkpt><trkpt lat="45.78990029555262" lon="8.955043660285302"><ele>409.33333333333337</ele><time>2026-04-24T04:54:09Z</time></trkpt><trkpt lat="45.78992415580809" lon="8.954956791564959"><ele>409.0</ele><time>2026-04-24T04:54:11Z</time></trkpt><trkpt lat="45.789972462368276" lon="8.954865625048592"><ele>409.0</ele><time>2026-04-24T04:54:13Z</time></trkpt><trkpt lat="45.79001139421586" lon="8.954788491274032"><ele>409.0</ele><time>2026-04-24T04:54:15Z</time></trkpt><trkpt lat="45.79005561894256" lon="8.954700098053253"><ele>409.0</ele><time>2026-04-24T04:54:17Z</time></trkpt><trkpt lat="45.79010640256197" lon="8.954637317788716"><ele>409.0</ele><time>2026-04-24T04:54:19Z</time></trkpt><trkpt lat="45.79014693241619" lon="8.954551026732123"><ele>409.0</ele><time>2026-04-24T04:54:21Z</time></trkpt><trkpt lat="45.79018108910675" lon="8.954464982258324"><ele>409.0</ele><time>2026-04-24T04:54:23Z</time></trkpt><trkpt lat="45.79021722610825" lon="8.954386018360497"><ele>409.0</ele><time>2026-04-24T04:54:25Z</time></trkpt><trkpt lat="45.790283670695416" lon="8.954319584022185"><ele>409.0</ele><time>2026-04-24T04:54:28Z</time></trkpt><trkpt lat="45.79034828214556" lon="8.954362595362484"><ele>409.0</ele><time>2026-04-24T04:54:30Z</time></trkpt><trkpt lat="45.79040385811892" lon="8.954425620276067"><ele>409.0</ele><time>2026-04-24T04:54:32Z</time></trkpt><trkpt lat="45.790492166929404" lon="8.954526493942618"><ele>409.0</ele><time>2026-04-24T04:54:34Z</time></trkpt><trkpt lat="45.79056581287519" lon="8.954602658779926"><ele>409.0</ele><time>2026-04-24T04:54:36Z</time></trkpt><trkpt lat="45.79066042560413" lon="8.95468500962195"><ele>409.0</ele><time>2026-04-24T04:54:38Z</time></trkpt><trkpt lat="45.790729416529956" lon="8.954781619857766"><ele>409.0</ele><time>2026-04-24T04:54:40Z</time></trkpt><trkpt lat="45.790803890292956" lon="8.95486333147865"><ele>409.0</ele><time>2026-04-24T04:54:42Z</time></trkpt><trkpt lat="45.79086953396465" lon="8.954941092596204"><ele>409.0</ele><time>2026-04-24T04:54:44Z</time></trkpt><trkpt lat="45.790940002350816" lon="8.95502832395625"><ele>409.0</ele><time>2026-04-24T04:54:46Z</time></trkpt><trkpt lat="45.79101860437711" lon="8.955110664842197"><ele>410.50000000000006</ele><time>2026-04-24T04:54:48Z</time></trkpt><trkpt lat="45.79107104661967" lon="8.955200030384596"><ele>412.0</ele><time>2026-04-24T04:54:50Z</time></trkpt><trkpt lat="45.79114527197182" lon="8.955265152452366"><ele>413.5</ele><time>2026-04-24T04:54:52Z</time></trkpt><trkpt lat="45.79118986760297" lon="8.955355770402068"><ele>415.0</ele><time>2026-04-24T04:54:54Z</time></trkpt><trkpt lat="45.7912541955121" lon="8.95539036457881"><ele>416.50000000000006</ele><time>2026-04-24T04:54:56Z</time></trkpt><trkpt lat="45.791327477924426" lon="8.955386226095762"><ele>418.0</ele><time>2026-04-24T04:54:58Z</time></trkpt><trkpt lat="45.79141387577649" lon="8.955398858698176"><ele>418.00000000000006</ele><time>2026-04-24T04:55:00Z</time></trkpt><trkpt lat="45.79149002752452" lon="8.955418294094187"><ele>418.0</ele><time>2026-04-24T04:55:02Z</time></trkpt><trkpt lat="45.7915517796961" lon="8.955463507617944"><ele>418.0</ele><time>2026-04-24T04:55:04Z</time></trkpt><trkpt lat="45.791617507202425" lon="8.955497688189885"><ele>418.0</ele><time>2026-04-24T04:55:06Z</time></trkpt><trkpt lat="45.79169559783331" lon="8.955535807740123"><ele>418.00000000000006</ele><time>2026-04-24T04:55:08Z</time></trkpt><trkpt lat="45.791781228904355" lon="8.955535538837712"><ele>418.0</ele><time>2026-04-24T04:55:10Z</time></trkpt><trkpt lat="45.79186610823277" lon="8.955508059543698"><ele>417.50000000000006</ele><time>2026-04-24T04:55:12Z</time></trkpt><trkpt lat="45.79198045703818" lon="8.955476750699244"><ele>417.0</ele><time>2026-04-24T04:55:14Z</time></trkpt><trkpt lat="45.792068460987956" lon="8.955430331222"><ele>416.5</ele><time>2026-04-24T04:55:16Z</time></trkpt><trkpt lat="45.79215158970967" lon="8.95539262642359"><ele>416.0</ele><time>2026-04-24T04:55:18Z</time></trkpt><trkpt lat="45.792227350902486" lon="8.955386937482826"><ele>415.50000000000006</ele><time>2026-04-24T04:55:20Z</time></trkpt><trkpt lat="45.79229927631526" lon="8.955363755745685"><ele>415.0</ele><time>2026-04-24T04:55:22Z</time></trkpt><trkpt lat="45.79238211872434" lon="8.955307788280289"><ele>415.00000000000006</ele><time>2026-04-24T04:55:24Z</time></trkpt><trkpt lat="45.792442179767" lon="8.955253922463164"><ele>415.0</ele><time>2026-04-24T04:55:26Z</time></trkpt><trkpt lat="45.79249956513078" lon="8.955291812692431"><ele>415.0</ele><time>2026-04-24T04:55:28Z</time></trkpt><trkpt lat="45.792554764239235" lon="8.95535246510775"><ele>415.0</ele><time>2026-04-24T04:55:30Z</time></trkpt><trkpt lat="45.79261291216242" lon="8.955446989881887"><ele>415.00000000000006</ele><time>2026-04-24T04:55:33Z</time></trkpt><trkpt lat="45.79269158210275" lon="8.955490840745128"><ele>415.0</ele><time>2026-04-24T04:55:35Z</time></trkpt><trkpt lat="45.792744077864455" lon="8.955566995998863"><ele>413.1666666666667</ele><time>2026-04-24T04:55:38.001Z</time></trkpt><trkpt lat="45.792798440586274" lon="8.955650936966999"><ele>411.33333333333337</ele><time>2026-04-24T04:55:40.001Z</time></trkpt><trkpt lat="45.79283316013074" lon="8.95576897590423"><ele>409.5</ele><time>2026-04-24T04:55:42.001Z</time></trkpt><trkpt lat="45.79287972983755" lon="8.955838470490376"><ele>407.66666666666663</ele><time>2026-04-24T04:55:44.001Z</time></trkpt><trkpt lat="45.79293499505126" lon="8.955914049710973"><ele>405.8333333333333</ele><time>2026-04-24T04:55:46.001Z</time></trkpt><trkpt lat="45.79296734204065" lon="8.95599978443286"><ele>404.0</ele><time>2026-04-24T04:55:51.001Z</time></trkpt><trkpt lat="45.793007259331986" lon="8.956105452276805"><ele>403.99999999999994</ele><time>2026-04-24T04:55:58Z</time></trkpt><trkpt lat="45.79304007394784" lon="8.956216831694489"><ele>404.0</ele><time>2026-04-24T04:56:02Z</time></trkpt><trkpt lat="45.79307541383548" lon="8.956291797994727"><ele>404.0</ele><time>2026-04-24T04:56:03Z</time></trkpt><trkpt lat="45.79312178582126" lon="8.956385778415207"><ele>404.0</ele><time>2026-04-24T04:56:04Z</time></trkpt><trkpt lat="45.79318690854938" lon="8.956450837507122"><ele>403.99999999999994</ele><time>2026-04-24T04:56:06Z</time></trkpt><trkpt lat="45.79324031596471" lon="8.956552805381213"><ele>404.0</ele><time>2026-04-24T04:56:08Z</time></trkpt><trkpt lat="45.79330405056198" lon="8.956605386961012"><ele>403.99999999999994</ele><time>2026-04-24T04:56:10Z</time></trkpt><trkpt lat="45.79337131527813" lon="8.9566853697087"><ele>404.0</ele><time>2026-04-24T04:56:22Z</time></trkpt><trkpt lat="45.79342578838874" lon="8.95679893862949"><ele>404.0</ele><time>2026-04-24T04:56:25Z</time></trkpt><trkpt lat="45.793495942685084" lon="8.956837119343962"><ele>404.0</ele><time>2026-04-24T04:56:31Z</time></trkpt><trkpt lat="45.79357160402044" lon="8.956919678427257"><ele>403.99999999999994</ele><time>2026-04-24T04:56:37Z</time></trkpt><trkpt lat="45.79364048093147" lon="8.957005738629134"><ele>404.0</ele><time>2026-04-24T04:56:40Z</time></trkpt><trkpt lat="45.793682575281856" lon="8.957076843229391"><ele>401.2</ele><time>2026-04-24T04:56:42Z</time></trkpt><trkpt lat="45.79374162016033" lon="8.957172215917401"><ele>398.4</ele><time>2026-04-24T04:56:46Z</time></trkpt><trkpt lat="45.79380244772438" lon="8.957083980697648"><ele>395.6</ele><time>2026-04-24T04:56:49Z</time></trkpt><trkpt lat="45.793854764745525" lon="8.956966828297666"><ele>392.8</ele><time>2026-04-24T04:56:51Z</time></trkpt><trkpt lat="45.793918062165" lon="8.956869106942621"><ele>390.0</ele><time>2026-04-24T04:56:53Z</time></trkpt><trkpt lat="45.79396667956272" lon="8.95676598361462"><ele>390.0</ele><time>2026-04-24T04:56:55Z</time></trkpt><trkpt lat="45.794010972354" lon="8.95666910833628"><ele>390.0</ele><time>2026-04-24T04:56:57Z</time></trkpt><trkpt lat="45.794053166023176" lon="8.956590513468457"><ele>390.0</ele><time>2026-04-24T04:56:59Z</time></trkpt><trkpt lat="45.79410111910928" lon="8.956505424445087"><ele>390.0</ele><time>2026-04-24T04:57:01Z</time></trkpt><trkpt lat="45.79414428731305" lon="8.956413393569749"><ele>390.0</ele><time>2026-04-24T04:57:03Z</time></trkpt><trkpt lat="45.79419651248629" lon="8.956321913141865"><ele>390.0</ele><time>2026-04-24T04:57:05Z</time></trkpt><trkpt lat="45.79424593174657" lon="8.956230468074292"><ele>390.0</ele><time>2026-04-24T04:57:07Z</time></trkpt><trkpt lat="45.7942956645823" lon="8.95613747164581"><ele>390.0</ele><time>2026-04-24T04:57:09Z</time></trkpt><trkpt lat="45.79434488452668" lon="8.956041384981475"><ele>390.0</ele><time>2026-04-24T04:57:11Z</time></trkpt><trkpt lat="45.7943923378662" lon="8.955939637030749"><ele>390.0</ele><time>2026-04-24T04:57:13Z</time></trkpt><trkpt lat="45.79444171712978" lon="8.955856323987542"><ele>390.0</ele><time>2026-04-24T04:57:15Z</time></trkpt><trkpt lat="45.794491371760444" lon="8.955763220977579"><ele>390.0</ele><time>2026-04-24T04:57:17Z</time></trkpt><trkpt lat="45.79453141537528" lon="8.955672777195394"><ele>389.6666666666667</ele><time>2026-04-24T04:57:19Z</time></trkpt><trkpt lat="45.79458031917649" lon="8.955595601997679"><ele>389.33333333333337</ele><time>2026-04-24T04:57:21Z</time></trkpt><trkpt lat="45.79462836623148" lon="8.955500731617558"><ele>389.0</ele><time>2026-04-24T04:57:23Z</time></trkpt><trkpt lat="45.794665757450794" lon="8.955395714479822"><ele>388.6666666666667</ele><time>2026-04-24T04:57:25Z</time></trkpt><trkpt lat="45.79468553103295" lon="8.955283912122919"><ele>388.33333333333337</ele><time>2026-04-24T04:57:27Z</time></trkpt><trkpt lat="45.79469520381362" lon="8.95516191911803"><ele>388.0</ele><time>2026-04-24T04:57:29Z</time></trkpt><trkpt lat="45.7947012087105" lon="8.955042147531246"><ele>389.50000000000006</ele><time>2026-04-24T04:57:31Z</time></trkpt><trkpt lat="45.79471905169119" lon="8.954917814609413"><ele>391.0</ele><time>2026-04-24T04:57:33Z</time></trkpt><trkpt lat="45.79473303101039" lon="8.954798538243674"><ele>392.5</ele><time>2026-04-24T04:57:35Z</time></trkpt><trkpt lat="45.79474856357435" lon="8.954693632670063"><ele>394.0</ele><time>2026-04-24T04:57:37Z</time></trkpt><trkpt lat="45.79476471874601" lon="8.954545886568917"><ele>395.50000000000006</ele><time>2026-04-24T04:57:39Z</time></trkpt><trkpt lat="45.79478090519183" lon="8.9544560204592"><ele>397.0</ele><time>2026-04-24T04:57:41Z</time></trkpt><trkpt lat="45.79479689615876" lon="8.954322115253964"><ele>396.83333333333337</ele><time>2026-04-24T04:57:43Z</time></trkpt><trkpt lat="45.79480730723505" lon="8.95419088617857"><ele>396.6666666666667</ele><time>2026-04-24T04:57:45Z</time></trkpt><trkpt lat="45.794815210049975" lon="8.954062069579804"><ele>396.5</ele><time>2026-04-24T04:57:47Z</time></trkpt><trkpt lat="45.79481721720597" lon="8.953936659725766"><ele>396.33333333333337</ele><time>2026-04-24T04:57:49Z</time></trkpt><trkpt lat="45.794834643562474" lon="8.953812217985403"><ele>396.1666666666667</ele><time>2026-04-24T04:57:51Z</time></trkpt><trkpt lat="45.79482731700308" lon="8.953698522227189"><ele>396.0</ele><time>2026-04-24T04:57:53Z</time></trkpt><trkpt lat="45.79483107071563" lon="8.953588088135977"><ele>396.0</ele><time>2026-04-24T04:57:55Z</time></trkpt><trkpt lat="45.794825917153695" lon="8.953479634686936"><ele>396.0</ele><time>2026-04-24T04:57:57Z</time></trkpt><trkpt lat="45.79482481285585" lon="8.953374585824653"><ele>396.0</ele><time>2026-04-24T04:57:59Z</time></trkpt><trkpt lat="45.7948331233866" lon="8.953261093491468"><ele>396.0</ele><time>2026-04-24T04:58:01Z</time></trkpt><trkpt lat="45.79484275827467" lon="8.953155215831424"><ele>396.0</ele><time>2026-04-24T04:58:03Z</time></trkpt><trkpt lat="45.79485574282067" lon="8.95305292398773"><ele>396.0</ele><time>2026-04-24T04:58:05Z</time></trkpt><trkpt lat="45.794856628695854" lon="8.952947686110063"><ele>396.0</ele><time>2026-04-24T04:58:07Z</time></trkpt><trkpt lat="45.79487391297328" lon="8.952821828626835"><ele>395.8333333333333</ele><time>2026-04-24T04:58:10Z</time></trkpt><trkpt lat="45.794875054567626" lon="8.952715047775097"><ele>395.66666666666663</ele><time>2026-04-24T04:58:13Z</time></trkpt><trkpt lat="45.794890552823524" lon="8.952590246653966"><ele>395.5</ele><time>2026-04-24T04:58:16Z</time></trkpt><trkpt lat="45.79486627788722" lon="8.95250179894428"><ele>395.3333333333333</ele><time>2026-04-24T04:58:18Z</time></trkpt><trkpt lat="45.794934613111955" lon="8.952400838135846"><ele>395.16666666666663</ele><time>2026-04-24T04:58:20Z</time></trkpt><trkpt lat="45.794954963809346" lon="8.95230824168235"><ele>395.0</ele><time>2026-04-24T04:58:22Z</time></trkpt><trkpt lat="45.79499245487238" lon="8.95220434762173"><ele>394.99999999999994</ele><time>2026-04-24T04:58:25Z</time></trkpt><trkpt lat="45.79507197186623" lon="8.952161760936608"><ele>395.0</ele><time>2026-04-24T04:58:29Z</time></trkpt><trkpt lat="45.795138549174865" lon="8.952178448187734"><ele>395.0</ele><time>2026-04-24T04:58:31Z</time></trkpt><trkpt lat="45.79520386806252" lon="8.952178159785701"><ele>395.0</ele><time>2026-04-24T04:58:35Z</time></trkpt><trkpt lat="45.79527684111237" lon="8.952172629706254"><ele>394.99999999999994</ele><time>2026-04-24T04:58:43Z</time></trkpt><trkpt lat="45.79535178243864" lon="8.952158948202584"><ele>395.0</ele><time>2026-04-24T04:58:46Z</time></trkpt><trkpt lat="45.79543180919826" lon="8.95212636538577"><ele>394.99999999999994</ele><time>2026-04-24T04:58:49Z</time></trkpt><trkpt lat="45.795513678067145" lon="8.952155921976928"><ele>395.0</ele><time>2026-04-24T04:58:54Z</time></trkpt><trkpt lat="45.79560518887745" lon="8.952109368635575"><ele>395.0</ele><time>2026-04-24T04:58:58Z</time></trkpt><trkpt lat="45.795675669021925" lon="8.952098649799792"><ele>395.0</ele><time>2026-04-24T04:59:00Z</time></trkpt><trkpt lat="45.79575555631275" lon="8.952099597248234"><ele>394.99999999999994</ele><time>2026-04-24T04:59:02Z</time></trkpt><trkpt lat="45.79582192189023" lon="8.952105593099775"><ele>395.0</ele><time>2026-04-24T04:59:04Z</time></trkpt><trkpt lat="45.795904616037916" lon="8.952091803324208"><ele>394.99999999999994</ele><time>2026-04-24T04:59:06Z</time></trkpt><trkpt lat="45.795993238588125" lon="8.952084360966593"><ele>395.0</ele><time>2026-04-24T04:59:09Z</time></trkpt><trkpt lat="45.796084845883115" lon="8.952060807705564"><ele>395.0</ele><time>2026-04-24T04:59:12Z</time></trkpt><trkpt lat="45.796155855716215" lon="8.95202410768928"><ele>395.0</ele><time>2026-04-24T04:59:16Z</time></trkpt><trkpt lat="45.79621730047577" lon="8.952072819421442"><ele>394.99999999999994</ele><time>2026-04-24T04:59:20Z</time></trkpt><trkpt lat="45.796298389037126" lon="8.952114195099947"><ele>395.0</ele><time>2026-04-24T04:59:26Z</time></trkpt><trkpt lat="45.79637444322257" lon="8.952119433884286"><ele>394.99999999999994</ele><time>2026-04-24T04:59:29Z</time></trkpt><trkpt lat="45.79646369872346" lon="8.952126805738784"><ele>395.0</ele><time>2026-04-24T04:59:32Z</time></trkpt><trkpt lat="45.796530838161125" lon="8.952109962331727"><ele>395.0</ele><time>2026-04-24T04:59:35Z</time></trkpt><trkpt lat="45.796597051616466" lon="8.952045553223806"><ele>395.0</ele><time>2026-04-24T04:59:39Z</time></trkpt><trkpt lat="45.79667664539494" lon="8.951997289803641"><ele>394.99999999999994</ele><time>2026-04-24T04:59:43Z</time></trkpt><trkpt lat="45.796745333712096" lon="8.951980607482598"><ele>395.0</ele><time>2026-04-24T04:59:45Z</time></trkpt><trkpt lat="45.79681143676919" lon="8.951976010215692"><ele>394.7142857142857</ele><time>2026-04-24T04:59:48Z</time></trkpt><trkpt lat="45.79687674834347" lon="8.951934666862206"><ele>394.42857142857144</ele><time>2026-04-24T04:59:53Z</time></trkpt><trkpt lat="45.796944988936524" lon="8.951894512678665"><ele>394.14285714285717</ele><time>2026-04-24T05:00:12Z</time></trkpt><trkpt lat="45.79701287852473" lon="8.951908484907143"><ele>393.8571428571429</ele><time>2026-04-24T05:00:15Z</time></trkpt><trkpt lat="45.79707870044433" lon="8.951902594745599"><ele>393.57142857142856</ele><time>2026-04-24T05:00:17Z</time></trkpt><trkpt lat="45.79714094880201" lon="8.951917019819739"><ele>393.28571428571433</ele><time>2026-04-24T05:00:19Z</time></trkpt><trkpt lat="45.7972157998053" lon="8.951972738680963"><ele>393.0</ele><time>2026-04-24T05:00:26Z</time></trkpt><trkpt lat="45.79728357823678" lon="8.951899810759492"><ele>393.0</ele><time>2026-04-24T05:00:30Z</time></trkpt><trkpt lat="45.797350015003786" lon="8.951900339505993"><ele>393.0</ele><time>2026-04-24T05:00:32Z</time></trkpt><trkpt lat="45.797423558605644" lon="8.951900516233493"><ele>393.0</ele><time>2026-04-24T05:00:34Z</time></trkpt><trkpt lat="45.797511994966094" lon="8.95187336299727"><ele>393.0</ele><time>2026-04-24T05:00:37Z</time></trkpt><trkpt lat="45.797587504119555" lon="8.951862267848467"><ele>393.0</ele><time>2026-04-24T05:00:39Z</time></trkpt><trkpt lat="45.797672949973084" lon="8.951836760830982"><ele>393.0</ele><time>2026-04-24T05:00:42Z</time></trkpt><trkpt lat="45.79778829722757" lon="8.951841731383505"><ele>393.0</ele><time>2026-04-24T05:00:45Z</time></trkpt><trkpt lat="45.79786241793068" lon="8.951822099099084"><ele>393.0</ele><time>2026-04-24T05:00:47Z</time></trkpt><trkpt lat="45.797945570487" lon="8.951809538809282"><ele>393.0</ele><time>2026-04-24T05:00:50Z</time></trkpt><trkpt lat="45.79801775205729" lon="8.951789595630252"><ele>393.0</ele><time>2026-04-24T05:00:54Z</time></trkpt><trkpt lat="45.79805453766222" lon="8.951710988885877"><ele>393.0</ele><time>2026-04-24T05:00:58Z</time></trkpt><trkpt lat="45.79806156595003" lon="8.951605321452108"><ele>393.0</ele><time>2026-04-24T05:01:01Z</time></trkpt><trkpt lat="45.798121370555016" lon="8.951521255761357"><ele>393.0</ele><time>2026-04-24T05:01:04Z</time></trkpt><trkpt lat="45.79818887637901" lon="8.951505821425043"><ele>393.0</ele><time>2026-04-24T05:01:07Z</time></trkpt><trkpt lat="45.79819995509729" lon="8.9516065845338"><ele>393.0</ele><time>2026-04-24T05:01:10Z</time></trkpt><trkpt lat="45.79822801574181" lon="8.951707790536213"><ele>393.0</ele><time>2026-04-24T05:01:13Z</time></trkpt><trkpt lat="45.798257218412836" lon="8.951816238659044"><ele>393.0</ele><time>2026-04-24T05:01:16Z</time></trkpt><trkpt lat="45.79832018908749" lon="8.951846423257372"><ele>393.0</ele><time>2026-04-24T05:01:19Z</time></trkpt><trkpt lat="45.79841477083895" lon="8.951818270682551"><ele>393.0</ele><time>2026-04-24T05:01:22Z</time></trkpt><trkpt lat="45.798491088453765" lon="8.951819581397855"><ele>393.0</ele><time>2026-04-24T05:01:26Z</time></trkpt><trkpt lat="45.79855585264331" lon="8.951790890673934"><ele>393.0</ele><time>2026-04-24T05:01:29Z</time></trkpt><trkpt lat="45.79864214269821" lon="8.951764313037117"><ele>393.0</ele><time>2026-04-24T05:01:32Z</time></trkpt><trkpt lat="45.79872938995176" lon="8.951744056458102"><ele>393.0</ele><time>2026-04-24T05:01:35Z</time></trkpt><trkpt lat="45.798797841346385" lon="8.951722266795354"><ele>393.0</ele><time>2026-04-24T05:01:37Z</time></trkpt><trkpt lat="45.79886628855268" lon="8.951692966506473"><ele>392.5714285714286</ele><time>2026-04-24T05:01:39Z</time></trkpt><trkpt lat="45.79891041628856" lon="8.951626498499955"><ele>392.14285714285717</ele><time>2026-04-24T05:01:41Z</time></trkpt><trkpt lat="45.79896242083136" lon="8.95157345045517"><ele>391.7142857142857</ele><time>2026-04-24T05:01:43Z</time></trkpt><trkpt lat="45.79899207640656" lon="8.95146791741407"><ele>391.28571428571433</ele><time>2026-04-24T05:01:46Z</time></trkpt><trkpt lat="45.79903271387094" lon="8.95138786079944"><ele>390.85714285714283</ele><time>2026-04-24T05:01:50Z</time></trkpt><trkpt lat="45.79910109493049" lon="8.951364203708453"><ele>390.42857142857144</ele><time>2026-04-24T05:01:52Z</time></trkpt><trkpt lat="45.799187990850186" lon="8.951370982086116"><ele>390.0</ele><time>2026-04-24T05:01:54Z</time></trkpt><trkpt lat="45.799264231472094" lon="8.951403563175258"><ele>389.8333333333333</ele><time>2026-04-24T05:01:56Z</time></trkpt><trkpt lat="45.79933994476618" lon="8.951351910249139"><ele>389.66666666666663</ele><time>2026-04-24T05:01:58Z</time></trkpt><trkpt lat="45.79940759083807" lon="8.951337056725775"><ele>389.5</ele><time>2026-04-24T05:02:00Z</time></trkpt><trkpt lat="45.799471067525836" lon="8.951280504797285"><ele>389.3333333333333</ele><time>2026-04-24T05:02:02Z</time></trkpt><trkpt lat="45.799530407001946" lon="8.951235426292113"><ele>389.16666666666663</ele><time>2026-04-24T05:02:04Z</time></trkpt><trkpt lat="45.799615828262894" lon="8.951231029008227"><ele>389.0</ele><time>2026-04-24T05:02:07Z</time></trkpt><trkpt lat="45.799686103397974" lon="8.951280814382816"><ele>388.99999999999994</ele><time>2026-04-24T05:02:11Z</time></trkpt><trkpt lat="45.799763207328105" lon="8.951293870670954"><ele>389.0</ele><time>2026-04-24T05:02:14Z</time></trkpt><trkpt lat="45.79982404747875" lon="8.95127012827505"><ele>389.0</ele><time>2026-04-24T05:02:16Z</time></trkpt><trkpt lat="45.79992739047842" lon="8.951235760103941"><ele>389.0</ele><time>2026-04-24T05:02:19Z</time></trkpt><trkpt lat="45.80000217270921" lon="8.95121857445162"><ele>388.99999999999994</ele><time>2026-04-24T05:02:21Z</time></trkpt><trkpt lat="45.80007756945869" lon="8.951206127059695"><ele>389.0</ele><time>2026-04-24T05:02:23Z</time></trkpt><trkpt lat="45.80015051603747" lon="8.951167688609319"><ele>389.8333333333333</ele><time>2026-04-24T05:02:25Z</time></trkpt><trkpt lat="45.80021054521648" lon="8.951139416104175"><ele>390.66666666666663</ele><time>2026-04-24T05:02:27Z</time></trkpt><trkpt lat="45.8002992391523" lon="8.951123715452265"><ele>391.5</ele><time>2026-04-24T05:02:29Z</time></trkpt><trkpt lat="45.80036681823943" lon="8.951072802866449"><ele>392.33333333333337</ele><time>2026-04-24T05:02:31Z</time></trkpt><trkpt lat="45.80044593325425" lon="8.951032162449645"><ele>393.1666666666667</ele><time>2026-04-24T05:02:33Z</time></trkpt><trkpt lat="45.80051308564844" lon="8.950994469107131"><ele>394.0</ele><time>2026-04-24T05:02:35Z</time></trkpt><trkpt lat="45.80059075355912" lon="8.950973305982625"><ele>394.00000000000006</ele><time>2026-04-24T05:02:37Z</time></trkpt><trkpt lat="45.80066629245787" lon="8.950943673090087"><ele>394.0</ele><time>2026-04-24T05:02:39Z</time></trkpt><trkpt lat="45.800737145039214" lon="8.950908015843186"><ele>394.0</ele><time>2026-04-24T05:02:41Z</time></trkpt><trkpt lat="45.800816801044476" lon="8.950893184074408"><ele>394.0</ele><time>2026-04-24T05:02:43Z</time></trkpt><trkpt lat="45.80088925107729" lon="8.950877196543605"><ele>394.00000000000006</ele><time>2026-04-24T05:02:45Z</time></trkpt><trkpt lat="45.80095651177993" lon="8.950845242372795"><ele>394.0</ele><time>2026-04-24T05:02:47Z</time></trkpt><trkpt lat="45.801023399006695" lon="8.950802316244864"><ele>394.14285714285717</ele><time>2026-04-24T05:02:49Z</time></trkpt><trkpt lat="45.801091574534006" lon="8.95077495965557"><ele>394.28571428571433</ele><time>2026-04-24T05:02:51Z</time></trkpt><trkpt lat="45.80115942521062" lon="8.950769834117196"><ele>394.42857142857144</ele><time>2026-04-24T05:02:53Z</time></trkpt><trkpt lat="45.8012229755166" lon="8.950730898114848"><ele>394.57142857142856</ele><time>2026-04-24T05:02:55Z</time></trkpt><trkpt lat="45.80129856425152" lon="8.950704603890536"><ele>394.7142857142857</ele><time>2026-04-24T05:02:57Z</time></trkpt><trkpt lat="45.801377036363185" lon="8.950680657016141"><ele>394.85714285714283</ele><time>2026-04-24T05:02:59Z</time></trkpt><trkpt lat="45.801444695133384" lon="8.95063980317915"><ele>395.0</ele><time>2026-04-24T05:03:01Z</time></trkpt><trkpt lat="45.801522517013225" lon="8.950605405980781"><ele>394.99999999999994</ele><time>2026-04-24T05:03:03Z</time></trkpt><trkpt lat="45.801594443583554" lon="8.950592531307604"><ele>395.0</ele><time>2026-04-24T05:03:05Z</time></trkpt><trkpt lat="45.8016728126601" lon="8.9505644049068"><ele>395.0</ele><time>2026-04-24T05:03:07Z</time></trkpt><trkpt lat="45.801744973252134" lon="8.950567027912069"><ele>395.0</ele><time>2026-04-24T05:03:09Z</time></trkpt><trkpt lat="45.80182550758787" lon="8.950550507090673"><ele>394.99999999999994</ele><time>2026-04-24T05:03:11Z</time></trkpt><trkpt lat="45.80191319771371" lon="8.950524500744235"><ele>395.0</ele><time>2026-04-24T05:03:14Z</time></trkpt><trkpt lat="45.80198336122043" lon="8.950516256517854"><ele>394.85714285714283</ele><time>2026-04-24T05:03:16Z</time></trkpt><trkpt lat="45.80204886874111" lon="8.950514265960196"><ele>394.7142857142857</ele><time>2026-04-24T05:03:18Z</time></trkpt><trkpt lat="45.802120159089824" lon="8.950479643536024"><ele>394.57142857142856</ele><time>2026-04-24T05:03:20Z</time></trkpt><trkpt lat="45.802197607416566" lon="8.950473614789242"><ele>394.42857142857144</ele><time>2026-04-24T05:03:22Z</time></trkpt><trkpt lat="45.80226948006696" lon="8.950469780659759"><ele>394.28571428571433</ele><time>2026-04-24T05:03:24Z</time></trkpt><trkpt lat="45.80234341419501" lon="8.95044889180156"><ele>394.14285714285717</ele><time>2026-04-24T05:03:26Z</time></trkpt><trkpt lat="45.80241801562303" lon="8.950435254272424"><ele>394.0</ele><time>2026-04-24T05:03:28Z</time></trkpt><trkpt lat="45.80249715058919" lon="8.950430454698292"><ele>394.00000000000006</ele><time>2026-04-24T05:03:30Z</time></trkpt><trkpt lat="45.80257597819568" lon="8.950406004337193"><ele>394.0</ele><time>2026-04-24T05:03:32Z</time></trkpt><trkpt lat="45.80264237972341" lon="8.950401985504579"><ele>394.0</ele><time>2026-04-24T05:03:34Z</time></trkpt><trkpt lat="45.802715783616335" lon="8.95039942989971"><ele>394.0</ele><time>2026-04-24T05:03:36Z</time></trkpt><trkpt lat="45.802787384366034" lon="8.950373042856995"><ele>394.00000000000006</ele><time>2026-04-24T05:03:38Z</time></trkpt><trkpt lat="45.80289475858154" lon="8.950350159719914"><ele>394.0</ele><time>2026-04-24T05:03:41Z</time></trkpt><trkpt lat="45.80296017369372" lon="8.950348756474282"><ele>393.33333333333337</ele><time>2026-04-24T05:03:43Z</time></trkpt><trkpt lat="45.80302637418128" lon="8.950367301594625"><ele>392.6666666666667</ele><time>2026-04-24T05:03:45Z</time></trkpt><trkpt lat="45.803113894757175" lon="8.950344194125817"><ele>392.0</ele><time>2026-04-24T05:03:47Z</time></trkpt><trkpt lat="45.803199823323666" lon="8.950341719269332"><ele>391.33333333333337</ele><time>2026-04-24T05:03:50Z</time></trkpt><trkpt lat="45.803270627591054" lon="8.950328775682957"><ele>390.6666666666667</ele><time>2026-04-24T05:03:52Z</time></trkpt><trkpt lat="45.803350523042084" lon="8.950320733884382"><ele>390.0</ele><time>2026-04-24T05:03:54Z</time></trkpt><trkpt lat="45.80342616402327" lon="8.950298535285192"><ele>390.0</ele><time>2026-04-24T05:03:56Z</time></trkpt><trkpt lat="45.803496389887556" lon="8.950300443222071"><ele>390.0</ele><time>2026-04-24T05:03:58Z</time></trkpt><trkpt lat="45.803599469205146" lon="8.950270016786304"><ele>390.0</ele><time>2026-04-24T05:04:01Z</time></trkpt><trkpt lat="45.80368272394859" lon="8.950277108735984"><ele>390.0</ele><time>2026-04-24T05:04:03Z</time></trkpt><trkpt lat="45.803744847943115" lon="8.950236187443927"><ele>390.0</ele><time>2026-04-24T05:04:05Z</time></trkpt><trkpt lat="45.80381092980578" lon="8.950230492509126"><ele>390.0</ele><time>2026-04-24T05:04:07Z</time></trkpt><trkpt lat="45.803913152366064" lon="8.950224770226665"><ele>390.1666666666667</ele><time>2026-04-24T05:04:10Z</time></trkpt><trkpt lat="45.80399013115671" lon="8.95019575532454"><ele>390.33333333333337</ele><time>2026-04-24T05:04:12Z</time></trkpt><trkpt lat="45.80405773122924" lon="8.950195710494373"><ele>390.5</ele><time>2026-04-24T05:04:14Z</time></trkpt><trkpt lat="45.80414635840737" lon="8.950180872672867"><ele>390.6666666666667</ele><time>2026-04-24T05:04:16Z</time></trkpt><trkpt lat="45.80421762557161" lon="8.950182551301177"><ele>390.83333333333337</ele><time>2026-04-24T05:04:18Z</time></trkpt><trkpt lat="45.80431219812124" lon="8.950146245664296"><ele>391.0</ele><time>2026-04-24T05:04:21Z</time></trkpt><trkpt lat="45.804385306373625" lon="8.950144751358383"><ele>391.2857142857143</ele><time>2026-04-24T05:04:23Z</time></trkpt><trkpt lat="45.80444742109273" lon="8.950114704726582"><ele>391.57142857142856</ele><time>2026-04-24T05:04:25Z</time></trkpt><trkpt lat="45.80451274215141" lon="8.950078391194424"><ele>391.8571428571429</ele><time>2026-04-24T05:04:27Z</time></trkpt><trkpt lat="45.804577463718715" lon="8.950068410701682"><ele>392.1428571428571</ele><time>2026-04-24T05:04:29Z</time></trkpt><trkpt lat="45.80464138168938" lon="8.950066905161615"><ele>392.42857142857144</ele><time>2026-04-24T05:04:31Z</time></trkpt><trkpt lat="45.8047110223775" lon="8.950084583660558"><ele>392.7142857142857</ele><time>2026-04-24T05:04:33Z</time></trkpt><trkpt lat="45.8047857514486" lon="8.9501002313881"><ele>393.0</ele><time>2026-04-24T05:04:36Z</time></trkpt><trkpt lat="45.804873361460636" lon="8.950068862369392"><ele>393.00000000000006</ele><time>2026-04-24T05:04:39Z</time></trkpt><trkpt lat="45.80493776886158" lon="8.950053449184297"><ele>393.0</ele><time>2026-04-24T05:04:41Z</time></trkpt><trkpt lat="45.805029022137006" lon="8.950054138391446"><ele>393.0</ele><time>2026-04-24T05:04:44Z</time></trkpt><trkpt lat="45.8051088156555" lon="8.950042192102016"><ele>393.0</ele><time>2026-04-24T05:04:46Z</time></trkpt><trkpt lat="45.80518130741377" lon="8.950029489726434"><ele>393.0</ele><time>2026-04-24T05:04:48Z</time></trkpt><trkpt lat="45.80524810181776" lon="8.95002481366543"><ele>393.00000000000006</ele><time>2026-04-24T05:04:50Z</time></trkpt><trkpt lat="45.80531621882544" lon="8.950015382738531"><ele>393.0</ele><time>2026-04-24T05:04:52Z</time></trkpt><trkpt lat="45.80538178711176" lon="8.950003808307345"><ele>393.6666666666667</ele><time>2026-04-24T05:04:54Z</time></trkpt><trkpt lat="45.80545161351827" lon="8.949974787184857"><ele>394.33333333333337</ele><time>2026-04-24T05:04:56Z</time></trkpt><trkpt lat="45.80551984350353" lon="8.949973311522049"><ele>395.0</ele><time>2026-04-24T05:04:58Z</time></trkpt><trkpt lat="45.805599844838284" lon="8.949961964740595"><ele>395.6666666666667</ele><time>2026-04-24T05:05:00Z</time></trkpt><trkpt lat="45.805673357898144" lon="8.949965087894181"><ele>396.33333333333337</ele><time>2026-04-24T05:05:02Z</time></trkpt><trkpt lat="45.8057455722433" lon="8.949967908161378"><ele>397.0</ele><time>2026-04-24T05:05:04Z</time></trkpt><trkpt lat="45.80584756751697" lon="8.949949405431367"><ele>397.0</ele><time>2026-04-24T05:05:07Z</time></trkpt><trkpt lat="45.80591694364715" lon="8.949936053064405"><ele>397.0</ele><time>2026-04-24T05:05:09Z</time></trkpt><trkpt lat="45.805992957014865" lon="8.949949551561394"><ele>397.0</ele><time>2026-04-24T05:05:11Z</time></trkpt><trkpt lat="45.80605601153916" lon="8.949939896762219"><ele>397.0</ele><time>2026-04-24T05:05:13Z</time></trkpt><trkpt lat="45.806118939009956" lon="8.949929966521227"><ele>397.0</ele><time>2026-04-24T05:05:15Z</time></trkpt><trkpt lat="45.806195761789816" lon="8.949917778281828"><ele>397.0</ele><time>2026-04-24T05:05:17Z</time></trkpt><trkpt lat="45.80627846085482" lon="8.949887492839025"><ele>397.0</ele><time>2026-04-24T05:05:19Z</time></trkpt><trkpt lat="45.80634497747374" lon="8.94988291038576"><ele>396.83333333333337</ele><time>2026-04-24T05:05:22Z</time></trkpt><trkpt lat="45.80640947615448" lon="8.94985276783181"><ele>396.6666666666667</ele><time>2026-04-24T05:05:24Z</time></trkpt><trkpt lat="45.806491466169476" lon="8.949853898102063"><ele>396.5</ele><time>2026-04-24T05:05:27Z</time></trkpt><trkpt lat="45.806579359078846" lon="8.949836088593369"><ele>396.33333333333337</ele><time>2026-04-24T05:05:30Z</time></trkpt><trkpt lat="45.80666328424584" lon="8.949794416339321"><ele>396.1666666666667</ele><time>2026-04-24T05:05:33Z</time></trkpt><trkpt lat="45.80673666913457" lon="8.949777947545092"><ele>396.0</ele><time>2026-04-24T05:05:35Z</time></trkpt><trkpt lat="45.80682972558128" lon="8.949725613246976"><ele>396.0</ele><time>2026-04-24T05:05:38Z</time></trkpt><trkpt lat="45.80689474077424" lon="8.949725756702792"><ele>396.0</ele><time>2026-04-24T05:05:40Z</time></trkpt><trkpt lat="45.8069601311364" lon="8.949718926356109"><ele>396.0</ele><time>2026-04-24T05:05:42Z</time></trkpt><trkpt lat="45.80704357967885" lon="8.949731543197611"><ele>396.0</ele><time>2026-04-24T05:05:45Z</time></trkpt><trkpt lat="45.807138354399825" lon="8.949724168697603"><ele>396.0</ele><time>2026-04-24T05:05:48Z</time></trkpt><trkpt lat="45.807225024954846" lon="8.949734029508006"><ele>396.0</ele><time>2026-04-24T05:05:51Z</time></trkpt><trkpt lat="45.80730593387063" lon="8.949751895655554"><ele>396.0</ele><time>2026-04-24T05:05:54Z</time></trkpt><trkpt lat="45.80737264400992" lon="8.949799128481303"><ele>396.0</ele><time>2026-04-24T05:05:58Z</time></trkpt><trkpt lat="45.80743204166795" lon="8.949839674854239"><ele>396.0</ele><time>2026-04-24T05:06:00Z</time></trkpt><trkpt lat="45.80750837375093" lon="8.949875192048635"><ele>396.0</ele><time>2026-04-24T05:06:02Z</time></trkpt><trkpt lat="45.807574701820236" lon="8.949897141848988"><ele>396.0</ele><time>2026-04-24T05:06:04Z</time></trkpt><trkpt lat="45.80764044052807" lon="8.949937925045978"><ele>396.0</ele><time>2026-04-24T05:06:06Z</time></trkpt><trkpt lat="45.80771705645584" lon="8.949938973112584"><ele>396.0</ele><time>2026-04-24T05:06:08Z</time></trkpt><trkpt lat="45.80778015002485" lon="8.949954546935906"><ele>396.6666666666667</ele><time>2026-04-24T05:06:10Z</time></trkpt><trkpt lat="45.80785460806203" lon="8.94997180856493"><ele>397.33333333333337</ele><time>2026-04-24T05:06:12Z</time></trkpt><trkpt lat="45.80794794871278" lon="8.949979787018842"><ele>398.0</ele><time>2026-04-24T05:06:15Z</time></trkpt><trkpt lat="45.80801999697735" lon="8.949978523299016"><ele>398.6666666666667</ele><time>2026-04-24T05:06:17Z</time></trkpt><trkpt lat="45.80809011608198" lon="8.949946570916824"><ele>399.33333333333337</ele><time>2026-04-24T05:06:19Z</time></trkpt><trkpt lat="45.80816732974667" lon="8.949949129746075"><ele>400.0</ele><time>2026-04-24T05:06:22Z</time></trkpt><trkpt lat="45.808240108184464" lon="8.949934811397243"><ele>400.00000000000006</ele><time>2026-04-24T05:06:24Z</time></trkpt><trkpt lat="45.80832215465758" lon="8.949892069412982"><ele>400.0</ele><time>2026-04-24T05:06:28Z</time></trkpt><trkpt lat="45.80838638835593" lon="8.94991422572028"><ele>400.0</ele><time>2026-04-24T05:06:30Z</time></trkpt><trkpt lat="45.8084605404638" lon="8.94989190053804"><ele>400.0</ele><time>2026-04-24T05:06:32Z</time></trkpt><trkpt lat="45.80852795031544" lon="8.94987716852805"><ele>400.0</ele><time>2026-04-24T05:06:34Z</time></trkpt><trkpt lat="45.808612535797735" lon="8.94985629049149"><ele>400.00000000000006</ele><time>2026-04-24T05:06:37Z</time></trkpt><trkpt lat="45.808674227143875" lon="8.949831136803938"><ele>400.0</ele><time>2026-04-24T05:06:39Z</time></trkpt><trkpt lat="45.80874844531198" lon="8.949807924100043"><ele>400.00000000000006</ele><time>2026-04-24T05:06:41Z</time></trkpt><trkpt lat="45.8088161010628" lon="8.949784000058694"><ele>400.0</ele><time>2026-04-24T05:06:43Z</time></trkpt><trkpt lat="45.80890011133392" lon="8.94975160256842"><ele>400.0</ele><time>2026-04-24T05:06:46Z</time></trkpt><trkpt lat="45.808983118901004" lon="8.949728635761465"><ele>400.0</ele><time>2026-04-24T05:06:49Z</time></trkpt><trkpt lat="45.809053288930826" lon="8.949706039113256"><ele>400.00000000000006</ele><time>2026-04-24T05:06:51Z</time></trkpt><trkpt lat="45.809141091570964" lon="8.949665415885844"><ele>400.0</ele><time>2026-04-24T05:06:55Z</time></trkpt><trkpt lat="45.809216685166554" lon="8.949657986836641"><ele>400.00000000000006</ele><time>2026-04-24T05:06:58Z</time></trkpt><trkpt lat="45.80929086968177" lon="8.949677283757966"><ele>400.0</ele><time>2026-04-24T05:07:01Z</time></trkpt><trkpt lat="45.80932023031753" lon="8.94976837173309"><ele>400.0</ele><time>2026-04-24T05:07:03Z</time></trkpt><trkpt lat="45.8093303718969" lon="8.949881206437603"><ele>400.0</ele><time>2026-04-24T05:07:06Z</time></trkpt><trkpt lat="45.80937498470818" lon="8.949962816154144"><ele>400.0</ele><time>2026-04-24T05:07:11Z</time></trkpt><trkpt lat="45.80942838742235" lon="8.950023399347844"><ele>400.00000000000006</ele><time>2026-04-24T05:07:14Z</time></trkpt><trkpt lat="45.809507286422004" lon="8.950039905343607"><ele>400.0</ele><time>2026-04-24T05:07:16Z</time></trkpt><trkpt lat="45.80959676550987" lon="8.950011840596126"><ele>400.00000000000006</ele><time>2026-04-24T05:07:19Z</time></trkpt><trkpt lat="45.80967804420209" lon="8.950012221465883"><ele>400.0</ele><time>2026-04-24T05:07:22Z</time></trkpt><trkpt lat="45.8097401269812" lon="8.950031690649972"><ele>400.0</ele><time>2026-04-24T05:07:25Z</time></trkpt><trkpt lat="45.809825444243465" lon="8.95006678543474"><ele>400.0</ele><time>2026-04-24T05:07:28Z</time></trkpt><trkpt lat="45.80991306570207" lon="8.950134727447224"><ele>400.00000000000006</ele><time>2026-04-24T05:07:31Z</time></trkpt><trkpt lat="45.80997894582134" lon="8.950118697233757"><ele>400.0</ele><time>2026-04-24T05:07:33Z</time></trkpt><trkpt lat="45.810048230476724" lon="8.950047586363883"><ele>400.00000000000006</ele><time>2026-04-24T05:07:36Z</time></trkpt><trkpt lat="45.81011620354805" lon="8.95000995805079"><ele>400.0</ele><time>2026-04-24T05:07:38Z</time></trkpt><trkpt lat="45.810196961094434" lon="8.949963467480886"><ele>400.0</ele><time>2026-04-24T05:07:40Z</time></trkpt><trkpt lat="45.8102606816155" lon="8.949928572846016"><ele>400.0</ele><time>2026-04-24T05:07:43Z</time></trkpt><trkpt lat="45.81028690571042" lon="8.949827239487515"><ele>400.00000000000006</ele><time>2026-04-24T05:07:48Z</time></trkpt><trkpt lat="45.81033189240154" lon="8.949730977397062"><ele>400.0</ele><time>2026-04-24T05:07:52Z</time></trkpt><trkpt lat="45.81039856987439" lon="8.949733043034025"><ele>400.00000000000006</ele><time>2026-04-24T05:07:54Z</time></trkpt><trkpt lat="45.810485484523824" lon="8.949709122386773"><ele>400.0</ele><time>2026-04-24T05:07:57Z</time></trkpt><trkpt lat="45.81057189806138" lon="8.949700204290487"><ele>400.0</ele><time>2026-04-24T05:08:00Z</time></trkpt><trkpt lat="45.810648676169535" lon="8.949672321871034"><ele>400.0</ele><time>2026-04-24T05:08:03Z</time></trkpt><trkpt lat="45.810716380585184" lon="8.949657399994408"><ele>400.00000000000006</ele><time>2026-04-24T05:08:05Z</time></trkpt><trkpt lat="45.810774111499164" lon="8.949615373716028"><ele>400.0</ele><time>2026-04-24T05:08:07Z</time></trkpt><trkpt lat="45.81084641032362" lon="8.949613032879865"><ele>400.00000000000006</ele><time>2026-04-24T05:08:09Z</time></trkpt><trkpt lat="45.810925741776934" lon="8.94959611878987"><ele>400.0</ele><time>2026-04-24T05:08:12Z</time></trkpt><trkpt lat="45.81100920619146" lon="8.94957776014708"><ele>400.0</ele><time>2026-04-24T05:08:15Z</time></trkpt><trkpt lat="45.81108560874829" lon="8.949567701589098"><ele>400.0</ele><time>2026-04-24T05:08:17Z</time></trkpt><trkpt lat="45.811153656634396" lon="8.949566515787524"><ele>400.00000000000006</ele><time>2026-04-24T05:08:19Z</time></trkpt><trkpt lat="45.811247661892544" lon="8.949550413423092"><ele>400.0</ele><time>2026-04-24T05:08:22Z</time></trkpt><trkpt lat="45.81131992787035" lon="8.94953080271236"><ele>399.50000000000006</ele><time>2026-04-24T05:08:24Z</time></trkpt><trkpt lat="45.81139053120489" lon="8.949513512646178"><ele>399.0</ele><time>2026-04-24T05:08:26Z</time></trkpt><trkpt lat="45.81146892525463" lon="8.949490910582597"><ele>398.5</ele><time>2026-04-24T05:08:29Z</time></trkpt><trkpt lat="45.81153700108592" lon="8.94948202747207"><ele>398.0</ele><time>2026-04-24T05:08:31Z</time></trkpt><trkpt lat="45.81162148789655" lon="8.949477668031422"><ele>397.50000000000006</ele><time>2026-04-24T05:08:34Z</time></trkpt><trkpt lat="45.811699937040956" lon="8.949505248514008"><ele>397.0</ele><time>2026-04-24T05:08:37Z</time></trkpt><trkpt lat="45.81176172611754" lon="8.949531131994814"><ele>396.83333333333337</ele><time>2026-04-24T05:08:39Z</time></trkpt><trkpt lat="45.811849243342245" lon="8.94952537732317"><ele>396.6666666666667</ele><time>2026-04-24T05:08:42Z</time></trkpt><trkpt lat="45.81192525247218" lon="8.949468190782452"><ele>396.5</ele><time>2026-04-24T05:08:44Z</time></trkpt><trkpt lat="45.811985848556134" lon="8.949419802933566"><ele>396.33333333333337</ele><time>2026-04-24T05:08:46Z</time></trkpt><trkpt lat="45.81204401172427" lon="8.949378711112177"><ele>396.1666666666667</ele><time>2026-04-24T05:08:48Z</time></trkpt><trkpt lat="45.812120598475936" lon="8.94932445234893"><ele>396.0</ele><time>2026-04-24T05:08:51Z</time></trkpt><trkpt lat="45.81218249179106" lon="8.949271229220138"><ele>397.0</ele><time>2026-04-24T05:08:53Z</time></trkpt><trkpt lat="45.81225122773525" lon="8.949186322812631"><ele>398.0</ele><time>2026-04-24T05:08:56Z</time></trkpt><trkpt lat="45.812296607002345" lon="8.949114379901264"><ele>399.0</ele><time>2026-04-24T05:08:58Z</time></trkpt><trkpt lat="45.812321413644526" lon="8.949003621459417"><ele>400.0</ele><time>2026-04-24T05:09:01Z</time></trkpt><trkpt lat="45.812325556090066" lon="8.94888120227608"><ele>401.0</ele><time>2026-04-24T05:09:04Z</time></trkpt><trkpt lat="45.812302720922524" lon="8.948795984032012"><ele>402.0</ele><time>2026-04-24T05:09:06Z</time></trkpt><trkpt lat="45.81230394057449" lon="8.948703145881009"><ele>402.0</ele><time>2026-04-24T05:09:09Z</time></trkpt><trkpt lat="45.812297435811566" lon="8.948604336830076"><ele>402.0</ele><time>2026-04-24T05:09:13Z</time></trkpt><trkpt lat="45.812283636604334" lon="8.948490897120141"><ele>402.0</ele><time>2026-04-24T05:09:16Z</time></trkpt><trkpt lat="45.81227422941259" lon="8.948360315751808"><ele>402.0</ele><time>2026-04-24T05:09:18Z</time></trkpt><trkpt lat="45.81230115092711" lon="8.948266866892155"><ele>402.0</ele><time>2026-04-24T05:09:21Z</time></trkpt><trkpt lat="45.81234986061924" lon="8.948196604091027"><ele>402.0</ele><time>2026-04-24T05:09:23Z</time></trkpt><trkpt lat="45.812421569931814" lon="8.948132323661767"><ele>402.5</ele><time>2026-04-24T05:09:27Z</time></trkpt><trkpt lat="45.81247887550065" lon="8.948053993589104"><ele>403.0</ele><time>2026-04-24T05:09:31Z</time></trkpt><trkpt lat="45.812543079642886" lon="8.947946433564733"><ele>403.5</ele><time>2026-04-24T05:09:35Z</time></trkpt><trkpt lat="45.81256887543983" lon="8.947835643065064"><ele>404.0</ele><time>2026-04-24T05:09:38Z</time></trkpt><trkpt lat="45.81260081150193" lon="8.9477348816476"><ele>404.5</ele><time>2026-04-24T05:09:42Z</time></trkpt><trkpt lat="45.81264585673938" lon="8.94765791217489"><ele>405.0</ele><time>2026-04-24T05:09:46Z</time></trkpt><trkpt lat="45.81271358316915" lon="8.947647651789827"><ele>405.4285714285714</ele><time>2026-04-24T05:09:49Z</time></trkpt><trkpt lat="45.812777319496824" lon="8.94763641444501"><ele>405.85714285714283</ele><time>2026-04-24T05:09:52Z</time></trkpt><trkpt lat="45.8128546802981" lon="8.947617197055433"><ele>406.2857142857143</ele><time>2026-04-24T05:09:55Z</time></trkpt><trkpt lat="45.81292731644076" lon="8.947555153404778"><ele>406.71428571428567</ele><time>2026-04-24T05:09:58Z</time></trkpt><trkpt lat="45.812950842949036" lon="8.947467137597739"><ele>407.14285714285717</ele><time>2026-04-24T05:10:00Z</time></trkpt><trkpt lat="45.812958736842084" lon="8.94734597681898"><ele>407.57142857142856</ele><time>2026-04-24T05:10:03Z</time></trkpt><trkpt lat="45.812966114770376" lon="8.947247591219268"><ele>408.0</ele><time>2026-04-24T05:10:06Z</time></trkpt><trkpt lat="45.81296474655372" lon="8.947119891882895"><ele>408.8333333333333</ele><time>2026-04-24T05:10:09Z</time></trkpt><trkpt lat="45.812976727457624" lon="8.947009570011785"><ele>409.66666666666663</ele><time>2026-04-24T05:10:12Z</time></trkpt><trkpt lat="45.813036511969095" lon="8.946927239225914"><ele>410.5</ele><time>2026-04-24T05:10:15Z</time></trkpt><trkpt lat="45.81309670642698" lon="8.946895298147655"><ele>411.3333333333333</ele><time>2026-04-24T05:10:17Z</time></trkpt><trkpt lat="45.8131818805269" lon="8.946868281742056"><ele>412.16666666666663</ele><time>2026-04-24T05:10:20Z</time></trkpt><trkpt lat="45.81324474507832" lon="8.946840986373966"><ele>413.0</ele><time>2026-04-24T05:10:22Z</time></trkpt><trkpt lat="45.81332501049587" lon="8.9468031422161"><ele>412.99999999999994</ele><time>2026-04-24T05:10:25Z</time></trkpt><trkpt lat="45.81338915888567" lon="8.946753184339126"><ele>413.0</ele><time>2026-04-24T05:10:27Z</time></trkpt><trkpt lat="45.8134485260514" lon="8.946720448722896"><ele>413.0</ele><time>2026-04-24T05:10:29Z</time></trkpt><trkpt lat="45.81353213849878" lon="8.946663198509059"><ele>413.0</ele><time>2026-04-24T05:10:32Z</time></trkpt><trkpt lat="45.8136408015033" lon="8.946607961272226"><ele>412.99999999999994</ele><time>2026-04-24T05:10:35Z</time></trkpt><trkpt lat="45.81371786620431" lon="8.946587536022246"><ele>413.0</ele><time>2026-04-24T05:10:37Z</time></trkpt><trkpt lat="45.81378713873532" lon="8.946571732331979"><ele>412.7142857142857</ele><time>2026-04-24T05:10:39Z</time></trkpt><trkpt lat="45.81385266078997" lon="8.946547159515696"><ele>412.42857142857144</ele><time>2026-04-24T05:10:41Z</time></trkpt><trkpt lat="45.81391698378308" lon="8.946541934071744"><ele>412.1428571428571</ele><time>2026-04-24T05:10:43Z</time></trkpt><trkpt lat="45.81399361833263" lon="8.94654911429996"><ele>411.8571428571429</ele><time>2026-04-24T05:10:45Z</time></trkpt><trkpt lat="45.814066650245245" lon="8.946530555024477"><ele>411.57142857142856</ele><time>2026-04-24T05:10:47Z</time></trkpt><trkpt lat="45.81414511438311" lon="8.946509372807453"><ele>411.2857142857143</ele><time>2026-04-24T05:10:49Z</time></trkpt><trkpt lat="45.81422164665975" lon="8.946467495924097"><ele>411.0</ele><time>2026-04-24T05:10:51Z</time></trkpt><trkpt lat="45.814295779596826" lon="8.946418107144707"><ele>408.8333333333333</ele><time>2026-04-24T05:10:53Z</time></trkpt><trkpt lat="45.814375570083634" lon="8.946389031210328"><ele>406.66666666666663</ele><time>2026-04-24T05:10:55Z</time></trkpt><trkpt lat="45.81447023439769" lon="8.946341305268534"><ele>404.5</ele><time>2026-04-24T05:10:58Z</time></trkpt><trkpt lat="45.814532013305204" lon="8.946292754638216"><ele>402.3333333333333</ele><time>2026-04-24T05:11:00Z</time></trkpt><trkpt lat="45.81458754938467" lon="8.946234684893396"><ele>400.16666666666663</ele><time>2026-04-24T05:11:02Z</time></trkpt><trkpt lat="45.81464709239055" lon="8.946140646370146"><ele>398.0</ele><time>2026-04-24T05:11:05Z</time></trkpt><trkpt lat="45.814691784196874" lon="8.94603638637041"><ele>397.99999999999994</ele><time>2026-04-24T05:11:07Z</time></trkpt><trkpt lat="45.81467993746657" lon="8.94590543899616"><ele>398.0</ele><time>2026-04-24T05:11:10Z</time></trkpt><trkpt lat="45.81467115525086" lon="8.94580836519885"><ele>398.0</ele><time>2026-04-24T05:11:12Z</time></trkpt><trkpt lat="45.81465971735572" lon="8.945681936991303"><ele>398.0</ele><time>2026-04-24T05:11:15Z</time></trkpt><trkpt lat="45.8146508095822" lon="8.94558347533433"><ele>397.99999999999994</ele><time>2026-04-24T05:11:17Z</time></trkpt><trkpt lat="45.81462599850649" lon="8.945493405242157"><ele>398.0</ele><time>2026-04-24T05:11:19Z</time></trkpt><trkpt lat="45.81462950779306" lon="8.945390395665042"><ele>398.16666666666663</ele><time>2026-04-24T05:11:21Z</time></trkpt><trkpt lat="45.81459909791889" lon="8.945282345892329"><ele>398.3333333333333</ele><time>2026-04-24T05:11:24Z</time></trkpt><trkpt lat="45.81472681357844" lon="8.945289114032132"><ele>398.5</ele><time>2026-04-24T05:11:28Z</time></trkpt><trkpt lat="45.81479421363273" lon="8.945255536273715"><ele>398.66666666666663</ele><time>2026-04-24T05:11:30Z</time></trkpt><trkpt lat="45.81485954751396" lon="8.945245605184823"><ele>398.8333333333333</ele><time>2026-04-24T05:11:32Z</time></trkpt><trkpt lat="45.8149177184626" lon="8.94520488709024"><ele>399.0</ele><time>2026-04-24T05:11:34Z</time></trkpt><trkpt lat="45.81499776830304" lon="8.945150096273206"><ele>399.0</ele><time>2026-04-24T05:11:37Z</time></trkpt><trkpt lat="45.815055114859334" lon="8.945112570272398"><ele>399.0</ele><time>2026-04-24T05:11:39Z</time></trkpt><trkpt lat="45.8151213717428" lon="8.945079582903508"><ele>399.0</ele><time>2026-04-24T05:11:41Z</time></trkpt><trkpt lat="45.81521074043047" lon="8.945031944124562"><ele>399.0</ele><time>2026-04-24T05:11:44Z</time></trkpt><trkpt lat="45.8152687712917" lon="8.944995544512723"><ele>399.0</ele><time>2026-04-24T05:11:46Z</time></trkpt><trkpt lat="45.81535252986071" lon="8.944934538244814"><ele>399.0</ele><time>2026-04-24T05:11:49Z</time></trkpt><trkpt lat="45.81543229590473" lon="8.944881664476275"><ele>399.0</ele><time>2026-04-24T05:11:52Z</time></trkpt><trkpt lat="45.81549148086416" lon="8.944848533273786"><ele>399.0</ele><time>2026-04-24T05:11:54Z</time></trkpt><trkpt lat="45.815575823631285" lon="8.944810732401411"><ele>399.0</ele><time>2026-04-24T05:11:57Z</time></trkpt><trkpt lat="45.815636459399606" lon="8.944785756700735"><ele>399.0</ele><time>2026-04-24T05:11:59Z</time></trkpt><trkpt lat="45.81570179494927" lon="8.944764950314665"><ele>399.0</ele><time>2026-04-24T05:12:01Z</time></trkpt><trkpt lat="45.8157713166772" lon="8.94474627602695"><ele>399.0</ele><time>2026-04-24T05:12:03Z</time></trkpt><trkpt lat="45.81584130907944" lon="8.944723814994692"><ele>399.0</ele><time>2026-04-24T05:12:05Z</time></trkpt><trkpt lat="45.81591431013847" lon="8.944711776480625"><ele>398.8333333333333</ele><time>2026-04-24T05:12:07Z</time></trkpt><trkpt lat="45.81599038522629" lon="8.944688451410423"><ele>398.66666666666663</ele><time>2026-04-24T05:12:09Z</time></trkpt><trkpt lat="45.8160703029921" lon="8.94467084481386"><ele>398.5</ele><time>2026-04-24T05:12:11Z</time></trkpt><trkpt lat="45.81615030922041" lon="8.944651331242847"><ele>398.3333333333333</ele><time>2026-04-24T05:12:13Z</time></trkpt><trkpt lat="45.81622697244744" lon="8.94463612963315"><ele>398.16666666666663</ele><time>2026-04-24T05:12:15Z</time></trkpt><trkpt lat="45.816305415136284" lon="8.944621346587073"><ele>398.0</ele><time>2026-04-24T05:12:17Z</time></trkpt><trkpt lat="45.81638588671043" lon="8.944601683507615"><ele>397.99999999999994</ele><time>2026-04-24T05:12:19Z</time></trkpt><trkpt lat="45.81646066279429" lon="8.944588095221295"><ele>398.0</ele><time>2026-04-24T05:12:21Z</time></trkpt><trkpt lat="45.81653352418997" lon="8.944562701380256"><ele>398.0</ele><time>2026-04-24T05:12:23Z</time></trkpt><trkpt lat="45.81661339564775" lon="8.944553686296985"><ele>398.0</ele><time>2026-04-24T05:12:25Z</time></trkpt><trkpt lat="45.81669117365443" lon="8.944533204595457"><ele>397.99999999999994</ele><time>2026-04-24T05:12:27Z</time></trkpt><trkpt lat="45.81676896448861" lon="8.94451473806159"><ele>398.0</ele><time>2026-04-24T05:12:29Z</time></trkpt><trkpt lat="45.81684859905946" lon="8.944502909194071"><ele>398.16666666666663</ele><time>2026-04-24T05:12:31Z</time></trkpt><trkpt lat="45.81692915591036" lon="8.944479655090634"><ele>398.3333333333333</ele><time>2026-04-24T05:12:33Z</time></trkpt><trkpt lat="45.81701048641247" lon="8.944458846908615"><ele>398.5</ele><time>2026-04-24T05:12:35Z</time></trkpt><trkpt lat="45.817088632753915" lon="8.944441111277836"><ele>398.66666666666663</ele><time>2026-04-24T05:12:37Z</time></trkpt><trkpt lat="45.81717111488137" lon="8.944423406005734"><ele>398.8333333333333</ele><time>2026-04-24T05:12:39Z</time></trkpt><trkpt lat="45.81725106892346" lon="8.94440521062948"><ele>399.0</ele><time>2026-04-24T05:12:41Z</time></trkpt><trkpt lat="45.81732751119497" lon="8.944391540830221"><ele>399.0</ele><time>2026-04-24T05:12:43Z</time></trkpt><trkpt lat="45.81740233890642" lon="8.94438132370082"><ele>399.0</ele><time>2026-04-24T05:12:45Z</time></trkpt><trkpt lat="45.8174734670762" lon="8.944358047001591"><ele>399.0</ele><time>2026-04-24T05:12:47Z</time></trkpt><trkpt lat="45.81753884481348" lon="8.94434042704222"><ele>399.0</ele><time>2026-04-24T05:12:49Z</time></trkpt><trkpt lat="45.8176297677914" lon="8.944321710360969"><ele>399.0</ele><time>2026-04-24T05:12:52Z</time></trkpt><trkpt lat="45.8177107291349" lon="8.944318982307658"><ele>399.0</ele><time>2026-04-24T05:12:55Z</time></trkpt><trkpt lat="45.81778872393495" lon="8.94432620462871"><ele>399.0</ele><time>2026-04-24T05:12:58Z</time></trkpt><trkpt lat="45.81784665105067" lon="8.944206382567783"><ele>399.0</ele><time>2026-04-24T05:13:01Z</time></trkpt><trkpt lat="45.81783933048974" lon="8.944100816464955"><ele>399.0</ele><time>2026-04-24T05:13:03Z</time></trkpt><trkpt lat="45.817836337581404" lon="8.944001031736114"><ele>399.0</ele><time>2026-04-24T05:13:05Z</time></trkpt><trkpt lat="45.81783192870299" lon="8.943898691638955"><ele>399.0</ele><time>2026-04-24T05:13:07Z</time></trkpt><trkpt lat="45.81782922199881" lon="8.943799804394475"><ele>399.0</ele><time>2026-04-24T05:13:09Z</time></trkpt><trkpt lat="45.81782292477663" lon="8.943703740659348"><ele>399.0</ele><time>2026-04-24T05:13:11Z</time></trkpt><trkpt lat="45.81781625916865" lon="8.943607150371635"><ele>399.0</ele><time>2026-04-24T05:13:13Z</time></trkpt><trkpt lat="45.81781109288634" lon="8.94351058480997"><ele>399.0</ele><time>2026-04-24T05:13:15Z</time></trkpt><trkpt lat="45.81781424984295" lon="8.943416554686475"><ele>399.0</ele><time>2026-04-24T05:13:17Z</time></trkpt><trkpt lat="45.81785600661139" lon="8.943337983344954"><ele>399.0</ele><time>2026-04-24T05:13:19Z</time></trkpt><trkpt lat="45.817906757743046" lon="8.943261930000578"><ele>399.0</ele><time>2026-04-24T05:13:21Z</time></trkpt><trkpt lat="45.81795760480128" lon="8.943192676029575"><ele>399.0</ele><time>2026-04-24T05:13:23Z</time></trkpt><trkpt lat="45.818007403163314" lon="8.943126984634223"><ele>398.85714285714283</ele><time>2026-04-24T05:13:25Z</time></trkpt><trkpt lat="45.8180549535494" lon="8.943057203658018"><ele>398.7142857142857</ele><time>2026-04-24T05:13:27Z</time></trkpt><trkpt lat="45.81810719863504" lon="8.94299022976244"><ele>398.57142857142856</ele><time>2026-04-24T05:13:29Z</time></trkpt><trkpt lat="45.818154998784195" lon="8.942921319141698"><ele>398.42857142857144</ele><time>2026-04-24T05:13:31Z</time></trkpt><trkpt lat="45.81820416307437" lon="8.942848005059052"><ele>398.2857142857143</ele><time>2026-04-24T05:13:33Z</time></trkpt><trkpt lat="45.81825477974794" lon="8.942778402511346"><ele>398.1428571428571</ele><time>2026-04-24T05:13:35Z</time></trkpt><trkpt lat="45.81830344711159" lon="8.942706440104589"><ele>398.0</ele><time>2026-04-24T05:13:37Z</time></trkpt><trkpt lat="45.81835250975778" lon="8.942636478663488"><ele>397.99999999999994</ele><time>2026-04-24T05:13:39Z</time></trkpt><trkpt lat="45.81839990521078" lon="8.942567010723574"><ele>398.0</ele><time>2026-04-24T05:13:41Z</time></trkpt><trkpt lat="45.81844825402898" lon="8.94249903878588"><ele>398.0</ele><time>2026-04-24T05:13:43Z</time></trkpt><trkpt lat="45.81849511712433" lon="8.942426643793532"><ele>398.0</ele><time>2026-04-24T05:13:45Z</time></trkpt><trkpt lat="45.81853806351978" lon="8.942350135099725"><ele>398.0</ele><time>2026-04-24T05:13:47Z</time></trkpt><trkpt lat="45.81857784515322" lon="8.942269972018375"><ele>397.99999999999994</ele><time>2026-04-24T05:13:49Z</time></trkpt><trkpt lat="45.8186192345891" lon="8.94219337279332"><ele>398.0</ele><time>2026-04-24T05:13:51Z</time></trkpt><trkpt lat="45.81865883470695" lon="8.942112293928773"><ele>397.99999999999994</ele><time>2026-04-24T05:13:53Z</time></trkpt><trkpt lat="45.81869441035427" lon="8.942030130625355"><ele>398.0</ele><time>2026-04-24T05:13:55Z</time></trkpt><trkpt lat="45.81872788055892" lon="8.94194160616469"><ele>398.0</ele><time>2026-04-24T05:13:57Z</time></trkpt><trkpt lat="45.81875999970017" lon="8.941854704344642"><ele>398.0</ele><time>2026-04-24T05:13:59Z</time></trkpt><trkpt lat="45.818794132325564" lon="8.941766571784427"><ele>398.0</ele><time>2026-04-24T05:14:01Z</time></trkpt><trkpt lat="45.81882205652309" lon="8.94167158753455"><ele>397.99999999999994</ele><time>2026-04-24T05:14:03Z</time></trkpt><trkpt lat="45.8188502828859" lon="8.941582905476386"><ele>398.0</ele><time>2026-04-24T05:14:05Z</time></trkpt><trkpt lat="45.81887905923109" lon="8.941490802702184"><ele>398.1428571428571</ele><time>2026-04-24T05:14:07Z</time></trkpt><trkpt lat="45.81890983845999" lon="8.94140547648579"><ele>398.2857142857143</ele><time>2026-04-24T05:14:09Z</time></trkpt><trkpt lat="45.81893739230947" lon="8.941318279342008"><ele>398.42857142857144</ele><time>2026-04-24T05:14:11Z</time></trkpt><trkpt lat="45.818965640301556" lon="8.941228738359863"><ele>398.57142857142856</ele><time>2026-04-24T05:14:13Z</time></trkpt><trkpt lat="45.81899550736492" lon="8.94114460529352"><ele>398.7142857142857</ele><time>2026-04-24T05:14:15Z</time></trkpt><trkpt lat="45.81902175150624" lon="8.94105865315085"><ele>398.85714285714283</ele><time>2026-04-24T05:14:17Z</time></trkpt><trkpt lat="45.819046215397826" lon="8.940972740031635"><ele>399.0</ele><time>2026-04-24T05:14:19Z</time></trkpt><trkpt lat="45.8190744896916" lon="8.940890422898681"><ele>399.0</ele><time>2026-04-24T05:14:21Z</time></trkpt><trkpt lat="45.819113274405424" lon="8.940786223619844"><ele>399.0</ele><time>2026-04-24T05:14:24Z</time></trkpt><trkpt lat="45.819177141958136" lon="8.940836312465928"><ele>399.0</ele><time>2026-04-24T05:14:27Z</time></trkpt><trkpt lat="45.81922642752269" lon="8.940908407507841"><ele>399.0</ele><time>2026-04-24T05:14:31Z</time></trkpt><trkpt lat="45.81927031472638" lon="8.940983741356414"><ele>399.0</ele><time>2026-04-24T05:14:33Z</time></trkpt><trkpt lat="45.819322116698466" lon="8.941082881628438"><ele>399.0</ele><time>2026-04-24T05:14:35Z</time></trkpt><trkpt lat="45.819395814109384" lon="8.941185844725661"><ele>399.1666666666667</ele><time>2026-04-24T05:14:37Z</time></trkpt><trkpt lat="45.81946277780816" lon="8.94128168569513"><ele>399.33333333333337</ele><time>2026-04-24T05:14:39Z</time></trkpt><trkpt lat="45.81952117655504" lon="8.941379669039081"><ele>399.5</ele><time>2026-04-24T05:14:41Z</time></trkpt><trkpt lat="45.81957509038502" lon="8.941475257556615"><ele>399.6666666666667</ele><time>2026-04-24T05:14:43Z</time></trkpt><trkpt lat="45.81963751936907" lon="8.941567441368907"><ele>399.83333333333337</ele><time>2026-04-24T05:14:45Z</time></trkpt><trkpt lat="45.81968855254126" lon="8.941658328751737"><ele>400.0</ele><time>2026-04-24T05:14:47Z</time></trkpt><trkpt lat="45.81974360265238" lon="8.941747239072473"><ele>400.33333333333337</ele><time>2026-04-24T05:14:49Z</time></trkpt><trkpt lat="45.81979838408917" lon="8.941835449377203"><ele>400.6666666666667</ele><time>2026-04-24T05:14:51Z</time></trkpt><trkpt lat="45.8198502417537" lon="8.941920868884512"><ele>401.0</ele><time>2026-04-24T05:14:53Z</time></trkpt><trkpt lat="45.81990220983473" lon="8.942006551698485"><ele>401.33333333333337</ele><time>2026-04-24T05:14:55Z</time></trkpt><trkpt lat="45.81994242445482" lon="8.942099426001214"><ele>401.6666666666667</ele><time>2026-04-24T05:14:57Z</time></trkpt><trkpt lat="45.81999232976578" lon="8.942182011493719"><ele>402.0</ele><time>2026-04-24T05:14:59Z</time></trkpt><trkpt lat="45.820043043108804" lon="8.942267239246231"><ele>402.0</ele><time>2026-04-24T05:15:01Z</time></trkpt><trkpt lat="45.820100493542704" lon="8.942340325851184"><ele>402.0</ele><time>2026-04-24T05:15:03Z</time></trkpt><trkpt lat="45.82014777363577" lon="8.942426014296943"><ele>402.0</ele><time>2026-04-24T05:15:05Z</time></trkpt><trkpt lat="45.820193304296836" lon="8.94250739334088"><ele>402.0</ele><time>2026-04-24T05:15:07Z</time></trkpt><trkpt lat="45.82023455397404" lon="8.942587433561284"><ele>402.0</ele><time>2026-04-24T05:15:09Z</time></trkpt><trkpt lat="45.8202770589208" lon="8.942669597806312"><ele>402.0</ele><time>2026-04-24T05:15:11Z</time></trkpt><trkpt lat="45.8203232957464" lon="8.942747212584571"><ele>402.0</ele><time>2026-04-24T05:15:13Z</time></trkpt><trkpt lat="45.82036558575133" lon="8.942826805274256"><ele>402.0</ele><time>2026-04-24T05:15:15Z</time></trkpt><trkpt lat="45.82039670512778" lon="8.942925579630666"><ele>402.0</ele><time>2026-04-24T05:15:17Z</time></trkpt><trkpt lat="45.82045373289945" lon="8.94299774315138"><ele>402.0</ele><time>2026-04-24T05:15:19Z</time></trkpt><trkpt lat="45.82048411605095" lon="8.943093538644417"><ele>402.0</ele><time>2026-04-24T05:15:21Z</time></trkpt><trkpt lat="45.82053384603632" lon="8.943163490175268"><ele>402.0</ele><time>2026-04-24T05:15:23Z</time></trkpt><trkpt lat="45.82058235026835" lon="8.943245660260041"><ele>402.0</ele><time>2026-04-24T05:15:25Z</time></trkpt><trkpt lat="45.82062359137551" lon="8.94333038957673"><ele>402.0</ele><time>2026-04-24T05:15:27Z</time></trkpt><trkpt lat="45.82065950540378" lon="8.943426299945223"><ele>401.7142857142857</ele><time>2026-04-24T05:15:29Z</time></trkpt><trkpt lat="45.82071480382982" lon="8.943493970386715"><ele>401.42857142857144</ele><time>2026-04-24T05:15:31Z</time></trkpt><trkpt lat="45.82076144203501" lon="8.94357440806897"><ele>401.14285714285717</ele><time>2026-04-24T05:15:33Z</time></trkpt><trkpt lat="45.82081158997265" lon="8.943653799643949"><ele>400.8571428571429</ele><time>2026-04-24T05:15:35Z</time></trkpt><trkpt lat="45.820853237697015" lon="8.943735094612352"><ele>400.57142857142856</ele><time>2026-04-24T05:15:37Z</time></trkpt><trkpt lat="45.82089769163953" lon="8.943821471720682"><ele>400.28571428571433</ele><time>2026-04-24T05:15:39Z</time></trkpt><trkpt lat="45.8209446710145" lon="8.94389425275367"><ele>400.0</ele><time>2026-04-24T05:15:41Z</time></trkpt><trkpt lat="45.821074251497876" lon="8.943796373906231"><ele>400.0</ele><time>2026-04-24T05:15:44Z</time></trkpt><trkpt lat="45.82116146960512" lon="8.943877253225857"><ele>400.0</ele><time>2026-04-24T05:15:47Z</time></trkpt><trkpt lat="45.821237293517825" lon="8.94395635811284"><ele>400.0</ele><time>2026-04-24T05:15:49Z</time></trkpt><trkpt lat="45.82132171589201" lon="8.944021661553824"><ele>400.0</ele><time>2026-04-24T05:15:51Z</time></trkpt><trkpt lat="45.82140274581459" lon="8.944076626163254"><ele>400.0</ele><time>2026-04-24T05:15:53Z</time></trkpt><trkpt lat="45.82148939477339" lon="8.9441335648518"><ele>400.00000000000006</ele><time>2026-04-24T05:15:55Z</time></trkpt><trkpt lat="45.82157027797613" lon="8.944182230036306"><ele>400.0</ele><time>2026-04-24T05:15:57Z</time></trkpt><trkpt lat="45.82164016487501" lon="8.944239312182106"><ele>400.0</ele><time>2026-04-24T05:15:59Z</time></trkpt><trkpt lat="45.82170676430706" lon="8.944284328936867"><ele>400.0</ele><time>2026-04-24T05:16:01Z</time></trkpt><trkpt lat="45.821770783539115" lon="8.944332347331844"><ele>400.00000000000006</ele><time>2026-04-24T05:16:03Z</time></trkpt><trkpt lat="45.82183412836411" lon="8.94439057676053"><ele>400.0</ele><time>2026-04-24T05:16:05Z</time></trkpt><trkpt lat="45.821897394306774" lon="8.94444363833353"><ele>400.33333333333337</ele><time>2026-04-24T05:16:07Z</time></trkpt><trkpt lat="45.821963740376276" lon="8.944504405284277"><ele>400.6666666666667</ele><time>2026-04-24T05:16:09Z</time></trkpt><trkpt lat="45.82201843561224" lon="8.94457654332123"><ele>401.0</ele><time>2026-04-24T05:16:12Z</time></trkpt><trkpt lat="45.82207582728446" lon="8.944667973785988"><ele>401.33333333333337</ele><time>2026-04-24T05:16:15Z</time></trkpt><trkpt lat="45.82211282479825" lon="8.944762128188946"><ele>401.6666666666667</ele><time>2026-04-24T05:16:18Z</time></trkpt><trkpt lat="45.82215607062678" lon="8.944836841238175"><ele>402.0</ele><time>2026-04-24T05:16:26Z</time></trkpt><trkpt lat="45.8222303864498" lon="8.944887435390672"><ele>402.0</ele><time>2026-04-24T05:16:44Z</time></trkpt><trkpt lat="45.82229923771866" lon="8.944953810500728"><ele>402.0</ele><time>2026-04-24T05:16:46Z</time></trkpt><trkpt lat="45.822381560773415" lon="8.945016341110824"><ele>402.0</ele><time>2026-04-24T05:16:48Z</time></trkpt><trkpt lat="45.82246102451743" lon="8.945089371825043"><ele>402.0</ele><time>2026-04-24T05:16:50Z</time></trkpt><trkpt lat="45.82253816092979" lon="8.9451645378445"><ele>402.0</ele><time>2026-04-24T05:16:52Z</time></trkpt><trkpt lat="45.82261908065827" lon="8.945228550996875"><ele>402.40000000000003</ele><time>2026-04-24T05:16:54Z</time></trkpt><trkpt lat="45.82269995567542" lon="8.9453011595868"><ele>402.8</ele><time>2026-04-24T05:16:56Z</time></trkpt><trkpt lat="45.822776310281675" lon="8.945375899654294"><ele>403.2</ele><time>2026-04-24T05:16:58Z</time></trkpt><trkpt lat="45.822864285515294" lon="8.94543900992682"><ele>403.6</ele><time>2026-04-24T05:17:00Z</time></trkpt><trkpt lat="45.82294311497898" lon="8.945508095342902"><ele>404.0</ele><time>2026-04-24T05:17:02Z</time></trkpt><trkpt lat="45.82301768534523" lon="8.94556098264224"><ele>403.99999999999994</ele><time>2026-04-24T05:17:04Z</time></trkpt><trkpt lat="45.82309568633006" lon="8.945604303808063"><ele>404.0</ele><time>2026-04-24T05:17:06Z</time></trkpt><trkpt lat="45.82317301486482" lon="8.945601694300395"><ele>404.0</ele><time>2026-04-24T05:17:08Z</time></trkpt><trkpt lat="45.82323984793952" lon="8.945544045181883"><ele>404.0</ele><time>2026-04-24T05:17:10Z</time></trkpt><trkpt lat="45.82329332618929" lon="8.94548163632976"><ele>403.99999999999994</ele><time>2026-04-24T05:17:12Z</time></trkpt><trkpt lat="45.8233794639958" lon="8.945405610115046"><ele>404.0</ele><time>2026-04-24T05:17:15Z</time></trkpt><trkpt lat="45.823451917713406" lon="8.9454033710634"><ele>403.99999999999994</ele><time>2026-04-24T05:17:17Z</time></trkpt><trkpt lat="45.82353688406659" lon="8.94541453571646"><ele>404.0</ele><time>2026-04-24T05:17:20Z</time></trkpt><trkpt lat="45.823618778209216" lon="8.945391416605645"><ele>404.0</ele><time>2026-04-24T05:17:23Z</time></trkpt><trkpt lat="45.823684686357865" lon="8.945321917552606"><ele>404.0</ele><time>2026-04-24T05:17:26Z</time></trkpt><trkpt lat="45.823733910641245" lon="8.94524380007538"><ele>403.99999999999994</ele><time>2026-04-24T05:17:30Z</time></trkpt><trkpt lat="45.82376147308407" lon="8.945146936731765"><ele>404.0</ele><time>2026-04-24T05:17:34Z</time></trkpt><trkpt lat="45.82375235833801" lon="8.945029854006119"><ele>405.3333333333333</ele><time>2026-04-24T05:17:38Z</time></trkpt><trkpt lat="45.82376445505697" lon="8.944935487007672"><ele>406.66666666666663</ele><time>2026-04-24T05:17:42Z</time></trkpt><trkpt lat="45.823773678820835" lon="8.944831914623755"><ele>408.0</ele><time>2026-04-24T05:17:45Z</time></trkpt><trkpt lat="45.82377397383604" lon="8.944722024538821"><ele>409.33333333333337</ele><time>2026-04-24T05:17:49Z</time></trkpt><trkpt lat="45.82377262805073" lon="8.944602347718089"><ele>410.6666666666667</ele><time>2026-04-24T05:17:53Z</time></trkpt><trkpt lat="45.82376008495958" lon="8.944509270774178"><ele>412.0</ele><time>2026-04-24T05:17:56Z</time></trkpt><trkpt lat="45.82375479195354" lon="8.944380852161668"><ele>412.00000000000006</ele><time>2026-04-24T05:18:00Z</time></trkpt><trkpt lat="45.8237663163141" lon="8.944281192182142"><ele>412.0</ele><time>2026-04-24T05:18:04Z</time></trkpt><trkpt lat="45.823772008360194" lon="8.944176034049704"><ele>412.0</ele><time>2026-04-24T05:18:08Z</time></trkpt><trkpt lat="45.82383389448085" lon="8.944099066701035"><ele>412.0</ele><time>2026-04-24T05:18:12Z</time></trkpt><trkpt lat="45.82389087312157" lon="8.944027760790341"><ele>412.00000000000006</ele><time>2026-04-24T05:18:15Z</time></trkpt><trkpt lat="45.82395410104181" lon="8.943960839890138"><ele>412.0</ele><time>2026-04-24T05:18:18Z</time></trkpt><trkpt lat="45.82401856311048" lon="8.943891373641335"><ele>412.00000000000006</ele><time>2026-04-24T05:18:21Z</time></trkpt><trkpt lat="45.82408553552094" lon="8.943830171039966"><ele>412.0</ele><time>2026-04-24T05:18:24Z</time></trkpt><trkpt lat="45.82415284480541" lon="8.943756865965291"><ele>412.0</ele><time>2026-04-24T05:18:27Z</time></trkpt><trkpt lat="45.8242140423308" lon="8.943684058524196"><ele>412.0</ele><time>2026-04-24T05:18:30Z</time></trkpt><trkpt lat="45.824284955650924" lon="8.943627145357182"><ele>412.00000000000006</ele><time>2026-04-24T05:18:33Z</time></trkpt><trkpt lat="45.824360148517634" lon="8.94358139113328"><ele>412.0</ele><time>2026-04-24T05:18:36Z</time></trkpt><trkpt lat="45.82443713081371" lon="8.943548751469786"><ele>411.6666666666667</ele><time>2026-04-24T05:18:39Z</time></trkpt><trkpt lat="45.8245028515428" lon="8.94350196034068"><ele>411.33333333333337</ele><time>2026-04-24T05:18:42Z</time></trkpt><trkpt lat="45.82457738834781" lon="8.943445790570106"><ele>411.0</ele><time>2026-04-24T05:18:45Z</time></trkpt><trkpt lat="45.824659105640805" lon="8.943391493552117"><ele>410.66666666666663</ele><time>2026-04-24T05:18:48Z</time></trkpt><trkpt lat="45.82471816780232" lon="8.943353516711156"><ele>410.3333333333333</ele><time>2026-04-24T05:18:50Z</time></trkpt><trkpt lat="45.82481637327872" lon="8.94329239430656"><ele>410.0</ele><time>2026-04-24T05:18:54Z</time></trkpt><trkpt lat="45.824899185886544" lon="8.94324610697186"><ele>409.99999999999994</ele><time>2026-04-24T05:18:57Z</time></trkpt><trkpt lat="45.824977304784284" lon="8.943215438141843"><ele>410.0</ele><time>2026-04-24T05:19:00Z</time></trkpt><trkpt lat="45.82503851352211" lon="8.943177098873969"><ele>410.0</ele><time>2026-04-24T05:19:02Z</time></trkpt><trkpt lat="45.82510238890021" lon="8.94315543243148"><ele>410.0</ele><time>2026-04-24T05:19:05Z</time></trkpt><trkpt lat="45.82518009802854" lon="8.94313871117026"><ele>409.99999999999994</ele><time>2026-04-24T05:19:08Z</time></trkpt><trkpt lat="45.825248673861346" lon="8.94309607708926"><ele>410.0</ele><time>2026-04-24T05:19:11Z</time></trkpt><trkpt lat="45.82533540485155" lon="8.943087884275755"><ele>411.3333333333333</ele><time>2026-04-24T05:19:14Z</time></trkpt><trkpt lat="45.82540575798115" lon="8.94306758739694"><ele>412.66666666666663</ele><time>2026-04-24T05:19:17Z</time></trkpt><trkpt lat="45.8254764424569" lon="8.943024450914576"><ele>414.0</ele><time>2026-04-24T05:19:20Z</time></trkpt><trkpt lat="45.82556815659139" lon="8.943004434408099"><ele>415.33333333333337</ele><time>2026-04-24T05:19:23Z</time></trkpt><trkpt lat="45.82564269132844" lon="8.942990031796947"><ele>416.6666666666667</ele><time>2026-04-24T05:19:26Z</time></trkpt><trkpt lat="45.825706701524496" lon="8.942976366919485"><ele>418.0</ele><time>2026-04-24T05:19:29Z</time></trkpt><trkpt lat="45.82577332018801" lon="8.942926617834415"><ele>418.0</ele><time>2026-04-24T05:19:32Z</time></trkpt></trkseg></trk></gpx>